M I D A S
Marine Information and Data Acquisition System
Tripno 837 of the Zeeleeuw from 2005-01-13 07:08:01 to 2005-01-13 17:56:54
Back to CruiseResearch ActivitiesStationsMapUnderway DataData graphs

EquipmentUnitsComment
TimeDGPSUTC
LatitudeDGPSDM.mWGS84
LongitudeDGPSDM.mWGS84
TemperatureSBE03/SBE38deg celciusITS90
ConductivitySBE21S/mITS90
SalinitySBE21 Practical Salinity Units
ChlorophylAChelsea fluorimeterg/lCalibrated in Aceton
Missing or incorrect values are displayed as -999
Sea surface data collected by the RV Zeeleeuw from 2005-01-13 07:08:44 to 2005-01-13 18:06:43
                                                                                    Next 1000 lines
Time Latitude Longitude Temperature Conductivity Salinity ChlorophylA
2005-01-13 07:08:54 51°13.593 2°56.101 14.718147 0.01983 0.113354 -0.781249
2005-01-13 07:08:59 51°13.594 2°56.098 14.663058 0.01983 0.113357 -0.781249
2005-01-13 07:09:04 51°13.595 2°56.094 14.742628 0.01983 0.113357 -0.781249
2005-01-13 07:09:09 51°13.597 2°56.09 14.810118 0.01983 0.113359 -0.781249
2005-01-13 07:09:13 51°13.598 2°56.086 14.746834 0.01983 0.113359 -0.74754
2005-01-13 07:09:20 51°13.6 2°56.079 14.775791 0.01983 0.113363 -0.781249
2005-01-13 07:09:25 51°13.602 2°56.073 14.775791 0.01983 0.113363 -0.781249
2005-01-13 07:09:30 51°13.605 2°56.067 14.737761 0.01983 0.113363 -0.781249
2005-01-13 07:09:35 51°13.607 2°56.06 14.747637 0.01983 0.113364 -0.781249
2005-01-13 07:09:39 51°13.609 2°56.055 14.774941 0.01983 0.113366 -0.781249
2005-01-13 07:09:45 51°13.612 2°56.046 14.81701 0.01983 0.113366 -0.781249
2005-01-13 07:09:49 51°13.614 2°56.04 14.714697 0.01983 0.113366 -0.781249
2005-01-13 07:09:55 51°13.618 2°56.03 14.714697 0.01983 0.113366 -0.781249
2005-01-13 07:09:59 51°13.62 2°56.023 14.757889 0.01983 0.11337 -0.781249
2005-01-13 07:10:05 51°13.623 2°56.013 14.773949 0.01983 0.113371 -0.74754
2005-01-13 07:10:09 51°13.626 2°56.006 14.760062 0.01983 0.113371 -0.74754
2005-01-13 07:10:15 51°13.63 2°55.995 14.739179 0.01983 0.113371 -0.781249
2005-01-13 07:10:19 51°13.632 2°55.988 14.754724 0.01983 0.113373 -0.781249
2005-01-13 07:10:25 51°13.636 2°55.977 14.754724 0.01983 0.113373 -0.781249
2005-01-13 07:10:29 51°13.639 2°55.97 14.834284 0.01983 0.113375 -0.74754
2005-01-13 07:10:35 51°13.643 2°55.959 14.823382 0.01983 0.113379 -0.781249
2005-01-13 07:10:39 51°13.645 2°55.951 14.79383 0.01983 0.113379 -0.781249
2005-01-13 07:10:45 51°13.649 2°55.939 14.802801 0.01983 0.113379 -0.814958
2005-01-13 07:10:49 51°13.652 2°55.931 14.794067 0.01983 0.11338 -0.781249
2005-01-13 07:10:55 51°13.655 2°55.918 14.794067 0.01983 0.11338 -0.781249
2005-01-13 07:10:59 51°13.658 2°55.91 14.813848 0.01983 0.113384 -0.781249
2005-01-13 07:11:05 51°13.661 2°55.897 14.806483 0.01983 0.113382 -0.781249
2005-01-13 07:11:09 51°13.663 2°55.888 14.790903 0.01983 0.113384 -0.781249
2005-01-13 07:11:15 51°13.666 2°55.875 14.78722 0.01983 0.113386 -0.781249
2005-01-13 07:11:19 51°13.667 2°55.866 14.811204 0.01983 0.113389 -0.781249
2005-01-13 07:11:25 51°13.67 2°55.852 14.811204 0.01983 0.113389 -0.781249
2005-01-13 07:11:29 51°13.671 2°55.843 14.812101 0.01983 0.113389 -0.74754
2005-01-13 07:11:35 51°13.672 2°55.829 14.844665 0.01983 0.113391 -0.781249
2005-01-13 07:11:39 51°13.673 2°55.82 14.807192 0.01983 0.113391 -0.74754
2005-01-13 07:11:45 51°13.674 2°55.806 14.855044 0.01983 0.113393 -0.781249
2005-01-13 07:11:49 51°13.675 2°55.797 13.159906 0.01983 0.113479 -0.781249
2005-01-13 07:11:54 51°13.675 2°55.786 13.159906 0.01983 0.113479 -0.781249
2005-01-13 07:11:59 51°13.676 2°55.775 11.173905 0.01983 0.113874 -0.781249
2005-01-13 07:12:05 51°13.677 2°55.763 9.74218 0.024609 0.140707 2.758238
2005-01-13 07:12:09 51°13.677 2°55.756 9.273963 3.732372 28.925725 2.994204
2005-01-13 07:12:15 51°13.677 2°55.747 9.0057 3.721957 29.881901 1.713247
2005-01-13 07:12:19 51°13.677 2°55.743 8.744144 3.704166 30.917999 1.376153
2005-01-13 07:12:24 51°13.677 2°55.741 8.744144 3.704166 30.917999 1.376153
2005-01-13 07:12:29 51°13.678 2°55.742 8.728195 3.450474 29.732055 1.072768
2005-01-13 07:12:34 51°13.679 2°55.745 8.563163 3.284805 29.170897 1.039059
2005-01-13 07:12:38 51°13.681 2°55.748 8.450512 3.239107 29.258709 0.870512
2005-01-13 07:12:45 51°13.685 2°55.754 8.447661 3.164664 28.884411 0.904221
2005-01-13 07:12:49 51°13.689 2°55.756 8.356256 3.139922 28.782906 0.836802
2005-01-13 07:12:53 51°13.692 2°55.759 8.356256 3.139922 28.782906 0.836802
2005-01-13 07:12:59 51°13.697 2°55.761 8.325517 3.112865 28.640583 0.803093
2005-01-13 07:13:04 51°13.7 2°55.762 8.303493 3.08065 28.446695 0.803093
2005-01-13 07:13:09 51°13.703 2°55.762 8.321933 3.063069 28.335862 0.836802
2005-01-13 07:13:13 51°13.704 2°55.763 8.196643 3.024751 28.026882 0.668255
2005-01-13 07:13:19 51°13.704 2°55.762 8.198152 2.979908 27.615671 0.870512
2005-01-13 07:13:25 51°13.703 2°55.762 8.198152 2.979908 27.615671 0.870512
2005-01-13 07:13:29 51°13.702 2°55.762 8.197424 2.948753 27.345269 0.803093
2005-01-13 07:13:34 51°13.701 2°55.762 8.168017 2.921387 27.093448 0.870512
2005-01-13 07:13:40 51°13.699 2°55.761 8.141149 2.910231 27.019343 0.97164
2005-01-13 07:13:45 51°13.7 2°55.761 8.167808 2.894234 26.884714 1.005349
2005-01-13 07:13:49 51°13.701 2°55.76 8.062982 2.887289 26.830648 1.005349
2005-01-13 07:13:55 51°13.704 2°55.758 8.062982 2.887289 26.830648 1.005349
2005-01-13 07:13:59 51°13.706 2°55.756 8.099367 2.852034 26.490386 0.904221
2005-01-13 07:14:05 51°13.711 2°55.752 8.127919 2.792264 25.898443 0.93793
2005-01-13 07:14:09 51°13.715 2°55.749 8.074973 2.809836 26.097698 1.072768
2005-01-13 07:14:13 51°13.718 2°55.745 8.134534 2.793106 25.955429 1.072768
2005-01-13 07:14:19 51°13.724 2°55.739 8.10958 2.797315 26.016343 1.072768
2005-01-13 07:14:23 51°13.728 2°55.734 8.10958 2.797315 26.016343 1.072768
2005-01-13 07:14:29 51°13.735 2°55.725 8.13068 2.816361 26.207158 1.039059
2005-01-13 07:14:34 51°13.741 2°55.718 8.13568 2.836671 26.421675 1.072768
2005-01-13 07:14:39 51°13.748 2°55.71 8.082167 2.84551 26.512407 1.039059
2005-01-13 07:14:43 51°13.754 2°55.703 8.133492 2.846457 26.521503 1.039059
2005-01-13 07:14:49 51°13.763 2°55.693 8.09551 2.855613 26.61363 1.072768
2005-01-13 07:14:53 51°13.77 2°55.687 8.09551 2.855613 26.61363 1.072768
2005-01-13 07:14:57 51°13.777 2°55.68 8.076277 2.864874 26.708764 1.072768
2005-01-13 07:15:04 51°13.79 2°55.668 8.032889 2.871925 26.790736 1.106477
2005-01-13 07:15:09 51°13.799 2°55.659 8.033671 2.851088 26.579741 1.072768
2005-01-13 07:15:14 51°13.809 2°55.65 8.029759 2.816782 26.235683 1.039059
2005-01-13 07:15:19 51°13.819 2°55.64 8.084826 2.76375 25.708742 1.106477
2005-01-13 07:15:24 51°13.829 2°55.631 8.084826 2.76375 25.708742 1.106477
2005-01-13 07:15:29 51°13.839 2°55.621 8.057767 2.73408 25.415386 0.97164
2005-01-13 07:15:34 51°13.85 2°55.613 8.052396 2.734396 25.430673 1.072768
2005-01-13 07:15:39 51°13.862 2°55.604 8.04499 2.742287 25.518708 1.005349
2005-01-13 07:15:43 51°13.871 2°55.598 8.08493 2.75365 25.62538 1.106477
2005-01-13 07:15:49 51°13.886 2°55.589 8.069082 2.766065 25.753809 1.039059
2005-01-13 07:15:54 51°13.898 2°55.581 8.069082 2.766065 25.753809 1.039059
2005-01-13 07:15:59 51°13.91 2°55.574 8.078362 2.74639 25.560128 0.904221
2005-01-13 07:16:02 51°13.917 2°55.569 8.058549 2.778376 25.892307 1.039059
2005-01-13 07:16:09 51°13.934 2°55.557 8.065849 2.797737 26.079289 1.039059
2005-01-13 07:16:14 51°13.945 2°55.549 8.092175 2.821518 26.316683 1.072768
2005-01-13 07:16:19 51°13.957 2°55.54 8.053074 2.8453 26.567474 1.072768
2005-01-13 07:16:23 51°13.966 2°55.533 8.053074 2.8453 26.567474 1.072768
2005-01-13 07:16:29 51°13.981 2°55.523 8.06538 2.876451 26.888844 1.072768
2005-01-13 07:16:34 51°13.992 2°55.514 8.06976 2.904761 27.1885 1.072768
2005-01-13 07:16:37 51°14 2°55.508 8.075286 2.939073 27.540305 1.106477
2005-01-13 07:16:44 51°14.016 2°55.497 8.089621 2.96665 27.828196 1.342443
2005-01-13 07:16:49 51°14.028 2°55.488 8.103275 2.998018 28.150467 1.241315
2005-01-13 07:16:53 51°14.038 2°55.482 8.103275 2.998018 28.150467 1.241315
2005-01-13 07:16:59 51°14.053 2°55.472 8.102129 3.015492 28.32764 1.072768
2005-01-13 07:17:03 51°14.062 2°55.465 8.078831 3.03044 28.480722 1.409862
2005-01-13 07:17:09 51°14.077 2°55.454 8.071689 3.05718 28.754339 1.241315
2005-01-13 07:17:14 51°14.089 2°55.446 8.073253 3.063812 28.82053 1.376153
2005-01-13 07:17:19 51°14.101 2°55.436 8.057506 3.077709 28.965008 1.072768
2005-01-13 07:17:21 51°14.106 2°55.433 8.057506 3.077709 28.965008 1.072768
2005-01-13 07:17:29 51°14.126 2°55.418 8.059019 3.086657 29.056715 1.207606
2005-01-13 07:17:33 51°14.135 2°55.41 8.039983 3.081288 29.006369 1.308734
2005-01-13 07:17:39 51°14.15 2°55.398 8.022246 3.061285 28.811367 1.072768
2005-01-13 07:17:43 51°14.159 2°55.39 8.013898 3.082762 29.043765 1.005349
2005-01-13 07:17:49 51°14.173 2°55.377 8.002678 3.087184 29.093957 1.106477
2005-01-13 07:17:53 51°14.183 2°55.368 8.002678 3.087184 29.093957 1.106477
2005-01-13 07:17:59 51°14.196 2°55.353 7.982373 3.0875 29.101395 1.173896
2005-01-13 07:18:01 51°14.201 2°55.348 7.974959 3.099924 29.238492 1.039059
2005-01-13 07:18:09 51°14.218 2°55.327 7.976682 3.08529 29.099113 0.97164
2005-01-13 07:18:14 51°14.228 2°55.313 7.97971 3.088132 29.139834 0.93793
2005-01-13 07:18:19 51°14.238 2°55.299 7.974385 3.099082 29.2645 0.93793
2005-01-13 07:18:24 51°14.248 2°55.283 7.974385 3.099082 29.2645 0.93793
2005-01-13 07:18:29 51°14.257 2°55.268 7.954802 3.092554 29.201937 0.97164
2005-01-13 07:18:33 51°14.264 2°55.255 7.946132 3.105083 29.343915 1.005349
2005-01-13 07:18:39 51°14.276 2°55.236 7.962636 3.103504 29.335802 1.106477
2005-01-13 07:18:43 51°14.283 2°55.223 7.946707 3.113927 29.444744 1.039059
2005-01-13 07:18:49 51°14.294 2°55.203 7.96556 3.106978 29.37631 0.97164
2005-01-13 07:18:53 51°14.3 2°55.19 7.96556 3.106978 29.37631 0.97164
2005-01-13 07:18:59 51°14.311 2°55.17 7.963315 3.11319 29.446863 1.072768
2005-01-13 07:19:03 51°14.318 2°55.157 7.994066 3.115296 29.463266 1.072768
2005-01-13 07:19:09 51°14.328 2°55.139 7.998607 3.12214 29.536245 1.039059
2005-01-13 07:19:14 51°14.338 2°55.123 8.032524 3.126035 29.579819 0.870512
2005-01-13 07:19:19 51°14.347 2°55.107 8.067101 3.134459 29.668677 1.140187
2005-01-13 07:19:23 51°14.354 2°55.095 8.067101 3.134459 29.668677 1.140187
2005-01-13 07:19:29 51°14.366 2°55.077 8.02162 3.143513 29.750714 1.207606
2005-01-13 07:19:34 51°14.375 2°55.062 8.012384 3.141618 29.723086 1.173896
2005-01-13 07:19:37 51°14.38 2°55.053 8.014733 3.160571 29.901546 1.005349
2005-01-13 07:19:44 51°14.393 2°55.032 8.03508 3.172574 30.011493 1.241315
2005-01-13 07:19:49 51°14.404 2°55.017 8.052344 3.180998 30.101824 1.275024
2005-01-13 07:19:53 51°14.412 2°55.007 8.052344 3.180998 30.101824 1.275024
2005-01-13 07:19:59 51°14.421 2°54.994 8.026055 3.175522 30.045212 1.106477
2005-01-13 07:20:04 51°14.431 2°54.981 8.046398 3.194582 30.247703 1.207606
2005-01-13 07:20:09 51°14.438 2°54.969 8.032106 3.198899 30.296553 1.207606
2005-01-13 07:20:14 51°14.446 2°54.957 8.020576 3.194371 30.247655 1.241315
2005-01-13 07:20:19 51°14.453 2°54.947 8.000329 3.18858 30.188408 1.173896
2005-01-13 07:20:24 51°14.46 2°54.935 8.000329 3.18858 30.188408 1.173896
2005-01-13 07:20:29 51°14.468 2°54.924 8.013271 3.204691 30.351491 1.173896
2005-01-13 07:20:33 51°14.472 2°54.917 8.033358 3.202163 30.327164 1.241315
2005-01-13 07:20:39 51°14.481 2°54.903 8.045251 3.223645 30.555371 1.072768
2005-01-13 07:20:44 51°14.489 2°54.892 8.049684 3.219433 30.516984 1.308734
2005-01-13 07:20:49 51°14.498 2°54.881 8.038418 3.231543 30.649212 1.173896
2005-01-13 07:20:53 51°14.506 2°54.872 8.038418 3.231543 30.649212 1.173896
2005-01-13 07:20:59 51°14.517 2°54.859 8.061469 3.25071 30.846903 1.106477
2005-01-13 07:21:03 51°14.525 2°54.849 8.066371 3.277038 31.112655 1.140187
2005-01-13 07:21:09 51°14.538 2°54.833 8.07221 3.308317 31.43891 1.275024
2005-01-13 07:21:14 51°14.55 2°54.819 8.072054 3.330119 31.667899 1.005349
2005-01-13 07:21:19 51°14.561 2°54.806 8.091445 3.345707 31.828512 1.072768
2005-01-13 07:21:23 51°14.571 2°54.795 8.091445 3.345707 31.828512 1.072768
2005-01-13 07:21:29 51°14.586 2°54.778 8.097491 3.377832 32.158467 1.039059
2005-01-13 07:21:33 51°14.596 2°54.766 8.110206 3.389524 32.271231 1.005349
2005-01-13 07:21:39 51°14.61 2°54.75 8.119271 3.402691 32.407277 1.039059
2005-01-13 07:21:42 51°14.618 2°54.741 8.105568 3.399952 32.373713 0.803093
2005-01-13 07:21:49 51°14.637 2°54.72 8.105203 3.419439 32.57041 1.173896
2005-01-13 07:21:53 51°14.648 2°54.708 8.105203 3.419439 32.57041 1.173896
2005-01-13 07:21:59 51°14.664 2°54.691 8.107027 3.436083 32.737875 0.870512
2005-01-13 07:22:04 51°14.678 2°54.676 8.107861 3.442298 32.793488 1.039059
2005-01-13 07:22:09 51°14.692 2°54.661 8.097491 3.453885 32.915304 1.039059
2005-01-13 07:22:14 51°14.707 2°54.645 8.094729 3.456624 32.945074 0.836802
2005-01-13 07:22:19 51°14.721 2°54.629 8.102858 3.458099 32.963035 1.106477
2005-01-13 07:22:23 51°14.732 2°54.616 8.102858 3.458099 32.963035 1.106477
2005-01-13 07:22:29 51°14.749 2°54.597 8.106767 3.465052 33.037431 0.769383
2005-01-13 07:22:33 51°14.76 2°54.585 8.112133 3.467896 33.06991 1.072768
2005-01-13 07:22:39 51°14.778 2°54.565 8.110727 3.476535 33.166941 0.904221
2005-01-13 07:22:45 51°14.796 2°54.546 8.121303 3.477694 33.176854 1.005349
2005-01-13 07:22:49 51°14.807 2°54.534 8.111769 3.482118 33.222957 0.97164
2005-01-13 07:22:54 51°14.822 2°54.517 8.111769 3.482118 33.222957 0.97164
2005-01-13 07:22:58 51°14.833 2°54.505 8.112759 3.482329 33.22124 0.904221
2005-01-13 07:23:03 51°14.849 2°54.488 8.107131 3.468844 33.075234 0.735674
2005-01-13 07:23:09 51°14.866 2°54.47 8.110153 3.468002 33.062379 0.870512
2005-01-13 07:23:13 51°14.877 2°54.457 8.114165 3.492232 33.319872 0.803093
2005-01-13 07:23:19 51°14.894 2°54.439 8.109216 3.495814 33.355466 0.634546
2005-01-13 07:23:22 51°14.903 2°54.43 8.109216 3.495814 33.355466 0.634546
2005-01-13 07:23:29 51°14.924 2°54.41 8.107965 3.498974 33.390561 0.769383
2005-01-13 07:23:33 51°14.935 2°54.397 8.109945 3.462945 33.011198 0.803093
2005-01-13 07:23:39 51°14.954 2°54.378 8.101556 3.399741 32.34379 0.600836
2005-01-13 07:23:45 51°14.97 2°54.361 8.106089 3.462313 33.005291 0.668255
2005-01-13 07:23:49 51°14.981 2°54.348 8.08764 3.474849 33.138834 0.432289
2005-01-13 07:23:53 51°14.993 2°54.335 8.08764 3.474849 33.138834 0.432289
2005-01-13 07:23:59 51°15.01 2°54.316 8.091028 3.505717 33.465248 0.567127
2005-01-13 07:24:03 51°15.022 2°54.304 8.079665 3.493391 33.33929 0.533418
2005-01-13 07:24:09 51°15.039 2°54.285 8.076433 3.492548 33.335109 0.533418
2005-01-13 07:24:13 51°15.051 2°54.273 8.068404 3.496762 33.385358 0.465999
2005-01-13 07:24:19 51°15.068 2°54.254 8.062199 3.503821 33.464229 0.465999
2005-01-13 07:24:22 51°15.077 2°54.244 8.062199 3.503821 33.464229 0.465999
2005-01-13 07:24:29 51°15.097 2°54.221 8.061834 3.506138 33.493609 0.39858
2005-01-13 07:24:34 51°15.112 2°54.205 8.063868 3.503926 33.474107 0.465999
2005-01-13 07:24:39 51°15.126 2°54.189 8.065797 3.514461 33.594767 0.465999
2005-01-13 07:24:44 51°15.142 2°54.173 8.054847 3.479169 33.224088 0.432289
2005-01-13 07:24:49 51°15.156 2°54.157 8.054795 3.502135 33.470229 0.364871
2005-01-13 07:24:54 51°15.173 2°54.14 8.054795 3.502135 33.470229 0.364871
2005-01-13 07:24:59 51°15.186 2°54.125 8.052292 3.506244 33.516261 0.465999
2005-01-13 07:25:04 51°15.202 2°54.107 8.045877 3.51562 33.615882 0.432289
2005-01-13 07:25:09 51°15.216 2°54.092 8.053908 3.506771 33.527445 0.364871
2005-01-13 07:25:14 51°15.231 2°54.075 8.042121 3.51404 33.607092 0.432289
2005-01-13 07:25:19 51°15.245 2°54.06 8.038314 3.485806 33.308776 0.331161
2005-01-13 07:25:23 51°15.257 2°54.047 8.038314 3.485806 33.308776 0.331161
2005-01-13 07:25:29 51°15.276 2°54.027 8.04113 3.509615 33.564863 0.499708
2005-01-13 07:25:33 51°15.289 2°54.013 8.040244 3.491284 33.371707 0.331161
2005-01-13 07:25:38 51°15.301 2°54 8.046242 3.513408 33.611581 0.668255
2005-01-13 07:25:45 51°15.324 2°53.979 8.045929 3.51109 33.589341 0.196324
2005-01-13 07:25:49 51°15.334 2°53.968 8.046972 3.470741 33.163915 0.600836
2005-01-13 07:25:53 51°15.345 2°53.955 8.046972 3.470741 33.163915 0.600836
2005-01-13 07:25:59 51°15.363 2°53.936 8.038053 3.517938 33.664565 0.499708
2005-01-13 07:26:04 51°15.375 2°53.922 8.037114 3.510142 33.579261 0.364871
2005-01-13 07:26:09 51°15.391 2°53.905 8.037896 3.49592 33.421736 0.567127
2005-01-13 07:26:13 51°15.402 2°53.892 8.040505 3.514567 33.622301 0.499708
2005-01-13 07:26:17 51°15.413 2°53.88 8.046085 3.509194 33.565981 0.499708
2005-01-13 07:26:23 51°15.432 2°53.86 8.046085 3.509194 33.565981 0.499708
2005-01-13 07:26:29 51°15.45 2°53.841 8.04113 3.510248 33.583582 0.465999
2005-01-13 07:26:33 51°15.461 2°53.829 8.040192 3.51699 33.658491 0.567127
2005-01-13 07:26:39 51°15.478 2°53.81 8.04306 3.509194 33.575581 0.499708
2005-01-13 07:26:42 51°15.488 2°53.8 8.048224 3.489704 33.364463 0.465999
2005-01-13 07:26:49 51°15.508 2°53.777 8.051405 3.51404 33.627116 0.432289
2005-01-13 07:26:54 51°15.525 2°53.759 8.051405 3.51404 33.627116 0.432289
2005-01-13 07:26:59 51°15.537 2°53.747 8.049893 3.507403 33.555739 0.499708
2005-01-13 07:27:03 51°15.549 2°53.735 8.053595 3.523206 33.723009 0.634546
2005-01-13 07:27:09 51°15.567 2°53.715 8.050258 3.504769 33.522945 0.465999
2005-01-13 07:27:13 51°15.579 2°53.702 8.051405 3.51699 33.651272 0.533418
2005-01-13 07:27:19 51°15.597 2°53.683 8.052083 3.518465 33.664551 0.533418
2005-01-13 07:27:23 51°15.608 2°53.67 8.052083 3.518465 33.664551 0.533418
2005-01-13 07:27:29 51°15.625 2°53.652 8.057611 3.520783 33.688398 0.668255
2005-01-13 07:27:33 51°15.638 2°53.638 8.048589 3.507192 33.543905 0.668255
2005-01-13 07:27:39 51°15.654 2°53.621 8.049528 3.514356 33.620862 0.701965
2005-01-13 07:27:44 51°15.67 2°53.605 8.054847 3.47485 33.201195 0.668255
2005-01-13 07:27:49 51°15.684 2°53.589 8.051509 3.492232 33.386549 0.735674
2005-01-13 07:27:53 51°15.695 2°53.577 8.051509 3.492232 33.386549 0.735674
2005-01-13 07:27:59 51°15.713 2°53.556 8.055577 3.479907 33.253285 0.769383
2005-01-13 07:28:04 51°15.727 2°53.541 8.057037 3.496236 33.429075 0.735674
2005-01-13 07:28:09 51°15.741 2°53.526 8.052344 3.522995 33.711929 0.803093
2005-01-13 07:28:13 51°15.753 2°53.514 8.044312 3.513619 33.61222 0.735674
2005-01-13 07:28:19 51°15.772 2°53.495 8.048172 3.518781 33.667912 0.803093
2005-01-13 07:28:22 51°15.781 2°53.487 8.048172 3.518781 33.667912 0.803093
2005-01-13 07:28:29 51°15.802 2°53.468 8.044573 3.492022 33.38272 0.803093
2005-01-13 07:28:34 51°15.818 2°53.455 8.042017 3.523838 33.7225 0.769383
2005-01-13 07:28:38 51°15.831 2°53.446 8.041496 3.520467 33.689853 0.870512
2005-01-13 07:28:42 51°15.845 2°53.436 8.041496 3.516569 33.649196 0.904221
2005-01-13 07:28:49 51°15.868 2°53.421 8.043425 3.517306 33.658644 0.769383
2005-01-13 07:28:54 51°15.885 2°53.409 8.043425 3.517306 33.658644 0.769383
2005-01-13 07:28:59 51°15.899 2°53.4 8.037584 3.518149 33.669213 0.769383
2005-01-13 07:29:04 51°15.914 2°53.387 8.03581 3.521942 33.711969 0.803093
2005-01-13 07:29:09 51°15.931 2°53.376 8.028455 3.511512 33.601028 0.904221
2005-01-13 07:29:13 51°15.944 2°53.366 8.020368 3.518571 33.677709 0.836802
2005-01-13 07:29:19 51°15.962 2°53.354 8.01395 3.521626 33.708606 0.803093
2005-01-13 07:29:22 51°15.972 2°53.346 8.01395 3.521626 33.708606 0.803093
2005-01-13 07:29:29 51°15.994 2°53.33 8.015567 3.523733 33.734241 0.836802
2005-01-13 07:29:34 51°16.011 2°53.319 8.004661 3.521731 33.717764 0.97164
2005-01-13 07:29:39 51°16.029 2°53.307 8.005757 3.513303 33.634505 0.668255
2005-01-13 07:29:42 51°16.036 2°53.3 8.012645 3.494551 33.442244 0.97164
2005-01-13 07:29:49 51°16.058 2°53.284 8.0032 3.5152 33.665119 0.735674
2005-01-13 07:29:54 51°16.074 2°53.272 8.0032 3.5152 33.665119 0.735674
2005-01-13 07:29:59 51°16.09 2°53.261 7.997041 3.504454 33.553969 0.870512
2005-01-13 07:30:04 51°16.105 2°53.25 7.995058 3.510353 33.618353 0.701965
2005-01-13 07:30:09 51°16.122 2°53.238 7.995162 3.511723 33.635338 0.769383
2005-01-13 07:30:14 51°16.137 2°53.228 7.99464 3.517728 33.699269 0.803093
2005-01-13 07:30:19 51°16.154 2°53.217 7.99344 3.513303 33.653766 0.701965
2005-01-13 07:30:24 51°16.17 2°53.206 7.99344 3.513303 33.653766 0.701965
2005-01-13 07:30:29 51°16.187 2°53.193 7.995736 3.513198 33.658267 0.836802
2005-01-13 07:30:33 51°16.199 2°53.184 7.990203 3.51836 33.716458 0.769383
2005-01-13 07:30:39 51°16.219 2°53.17 7.996102 3.518255 33.717751 0.735674
2005-01-13 07:30:44 51°16.236 2°53.159 8.001112 3.508984 33.619819 0.668255
2005-01-13 07:30:49 51°16.251 2°53.147 7.998398 3.514568 33.680084 0.735674
2005-01-13 07:30:54 51°16.268 2°53.135 7.998398 3.514568 33.680084 0.735674
2005-01-13 07:30:59 51°16.284 2°53.123 8.008262 3.516043 33.697403 0.668255
2005-01-13 07:31:03 51°16.298 2°53.114 8.006018 3.519835 33.737001 0.600836
2005-01-13 07:31:09 51°16.317 2°53.1 8.007375 3.501925 33.543073 0.769383
2005-01-13 07:31:13 51°16.33 2°53.091 8.007583 3.506034 33.586007 0.701965
2005-01-13 07:31:19 51°16.349 2°53.077 8.003565 3.506771 33.589048 0.600836
2005-01-13 07:31:24 51°16.365 2°53.066 8.003565 3.506771 33.589048 0.600836
2005-01-13 07:31:29 51°16.383 2°53.055 8.010871 3.515937 33.685023 0.600836
2005-01-13 07:31:34 51°16.399 2°53.045 8.010349 3.519203 33.720606 0.39858
2005-01-13 07:31:39 51°16.412 2°53.035 8.013115 3.513303 33.656175 0.499708
2005-01-13 07:31:45 51°16.433 2°53.024 8.003408 3.472217 33.219148 0.533418
2005-01-13 07:31:49 51°16.446 2°53.016 8.004504 3.51088 33.629576 0.668255
2005-01-13 07:31:54 51°16.459 2°53.007 8.004504 3.51088 33.629576 0.668255
2005-01-13 07:31:59 51°16.473 2°52.998 8.003148 3.518255 33.707291 0.499708
2005-01-13 07:32:03 51°16.485 2°52.99 8.008523 3.516991 33.693025 0.668255
2005-01-13 07:32:09 51°16.505 2°52.977 8.007062 3.505718 33.574629 0.432289
2005-01-13 07:32:13 51°16.517 2°52.97 8.001477 3.499502 33.510885 0.567127
2005-01-13 07:32:19 51°16.536 2°52.956 8.007427 3.51678 33.694801 0.634546
2005-01-13 07:32:23 51°16.549 2°52.947 8.007427 3.51678 33.694801 0.634546
2005-01-13 07:32:29 51°16.566 2°52.934 8.0044 3.488862 33.397693 0.39858
2005-01-13 07:32:33 51°16.579 2°52.926 8.009984 3.519941 33.729266 0.735674
2005-01-13 07:32:38 51°16.595 2°52.916 8.012593 3.516148 33.69209 0.465999
2005-01-13 07:32:44 51°16.613 2°52.902 8.017028 3.526683 33.801091 0.701965
2005-01-13 07:32:49 51°16.629 2°52.892 8.007636 3.504454 33.564378 0.499708
2005-01-13 07:32:54 51°16.645 2°52.882 8.007636 3.504454 33.564378 0.499708
2005-01-13 07:32:59 51°16.661 2°52.872 8.010923 3.508457 33.607793 0.432289
2005-01-13 07:33:04 51°16.677 2°52.861 8.012071 3.515094 33.672834 0.668255
2005-01-13 07:33:09 51°16.693 2°52.851 8.009149 3.517412 33.6951 0.39858
2005-01-13 07:33:15 51°16.71 2°52.841 8.017707 3.478959 33.289219 0.769383
2005-01-13 07:33:19 51°16.722 2°52.832 8.014837 3.506245 33.580235 0.533418
2005-01-13 07:33:24 51°16.737 2°52.824 8.014837 3.506245 33.580235 0.533418
2005-01-13 07:33:29 51°16.753 2°52.813 8.017028 3.509089 33.608106 0.364871
2005-01-13 07:33:33 51°16.766 2°52.803 8.020681 3.515621 33.678442 0.701965
2005-01-13 07:33:39 51°16.785 2°52.791 8.02089 3.524998 33.775877 0.567127
2005-01-13 07:33:43 51°16.797 2°52.782 8.024803 3.529949 33.827815 0.567127
2005-01-13 07:33:49 51°16.815 2°52.771 8.026055 3.50635 33.576549 0.634546
2005-01-13 07:33:53 51°16.828 2°52.763 8.026055 3.50635 33.576549 0.634546
2005-01-13 07:33:59 51°16.848 2°52.749 8.032524 3.517096 33.689323 0.735674
2005-01-13 07:34:04 51°16.864 2°52.738 8.038888 3.518149 33.698932 0.634546
2005-01-13 07:34:09 51°16.879 2°52.727 8.035393 3.525208 33.771675 0.567127
2005-01-13 07:34:13 51°16.891 2°52.718 8.036071 3.508352 33.590639 0.735674
2005-01-13 07:34:19 51°16.912 2°52.707 8.044573 3.526999 33.785106 0.701965
2005-01-13 07:34:24 51°16.927 2°52.696 8.044573 3.526999 33.785106 0.701965
2005-01-13 07:34:29 51°16.943 2°52.684 8.045094 3.522469 33.73446 0.668255
2005-01-13 07:34:34 51°16.959 2°52.674 8.045668 3.524892 33.75623 0.634546
2005-01-13 07:34:37 51°16.969 2°52.666 8.046503 3.524471 33.75094 0.634546
2005-01-13 07:34:43 51°16.989 2°52.653 8.047546 3.526051 33.765346 0.567127
2005-01-13 07:34:49 51°17.01 2°52.64 8.051249 3.531845 33.823001 0.769383
2005-01-13 07:34:53 51°17.022 2°52.63 8.051249 3.531845 33.823001 0.769383
2005-01-13 07:34:59 51°17.041 2°52.618 8.05177 3.480855 33.278413 0.432289
2005-01-13 07:35:04 51°17.056 2°52.607 8.057819 3.526788 33.766755 0.567127
2005-01-13 07:35:09 51°17.073 2°52.595 8.058341 3.525208 33.749133 0.668255
2005-01-13 07:35:13 51°17.086 2°52.587 8.061834 3.533742 33.837543 0.803093
2005-01-13 07:35:19 51°17.104 2°52.576 8.065641 3.506982 33.551259 0.533418
2005-01-13 07:35:24 51°17.12 2°52.565 8.065641 3.506982 33.551259 0.533418
2005-01-13 07:35:29 51°17.136 2°52.554 8.071689 3.520362 33.691944 0.701965
2005-01-13 07:35:33 51°17.15 2°52.544 8.070907 3.492549 33.393088 0.701965
2005-01-13 07:35:39 51°17.167 2°52.532 8.071689 3.529738 33.786876 0.668255
2005-01-13 07:35:44 51°17.183 2°52.522 8.066423 3.526893 33.752589 0.600836
2005-01-13 07:35:49 51°17.201 2°52.511 8.073931 3.524681 33.725037 0.769383
2005-01-13 07:35:53 51°17.213 2°52.504 8.073931 3.524681 33.725037 0.769383
2005-01-13 07:35:59 51°17.231 2°52.491 8.072888 3.483699 33.288789 0.567127
2005-01-13 07:36:04 51°17.245 2°52.483 8.075234 3.479801 33.248206 0.701965
2005-01-13 07:36:09 51°17.262 2°52.472 8.073931 3.516463 33.635251 0.600836
2005-01-13 07:36:14 51°17.277 2°52.462 8.079665 3.49908 33.448936 0.803093
2005-01-13 07:36:19 51°17.292 2°52.452 8.084513 3.526156 33.733491 0.634546
2005-01-13 07:36:24 51°17.308 2°52.443 8.084513 3.526156 33.733491 0.634546
2005-01-13 07:36:29 51°17.325 2°52.434 8.079456 3.524997 33.721168 0.93793
2005-01-13 07:36:33 51°17.337 2°52.428 8.079144 3.503505 33.491951 0.600836
2005-01-13 07:36:39 51°17.355 2°52.417 8.0842 3.510247 33.565184 0.769383
2005-01-13 07:36:43 51°17.369 2°52.41 8.080395 3.534479 33.819598 0.769383
2005-01-13 07:36:49 51°17.387 2°52.4 8.082324 3.532582 33.797816 0.567127
2005-01-13 07:36:53 51°17.401 2°52.393 8.082324 3.532582 33.797816 0.567127
2005-01-13 07:36:59 51°17.421 2°52.386 8.083835 3.526577 33.733152 0.769383
2005-01-13 07:37:03 51°17.435 2°52.38 8.086129 3.525418 33.720027 0.836802
2005-01-13 07:37:09 51°17.455 2°52.373 8.087067 3.540695 33.883306 0.634546
2005-01-13 07:37:14 51°17.47 2°52.368 8.089152 3.536902 33.841345 0.803093
2005-01-13 07:37:19 51°17.489 2°52.362 8.08837 3.514461 33.600366 0.870512
2005-01-13 07:37:25 51°17.506 2°52.356 8.08837 3.514461 33.600366 0.870512
2005-01-13 07:37:29 51°17.52 2°52.35 8.088735 3.500871 33.455211 0.701965
2005-01-13 07:37:34 51°17.536 2°52.343 8.09181 3.535743 33.82499 0.93793
2005-01-13 07:37:39 51°17.552 2°52.337 8.088891 3.541643 33.886131 0.93793
2005-01-13 07:37:44 51°17.57 2°52.33 8.090663 3.540484 33.872997 0.836802
2005-01-13 07:37:49 51°17.586 2°52.325 8.092279 3.539747 33.865153 0.634546
2005-01-13 07:37:54 51°17.603 2°52.32 8.092279 3.539747 33.865153 0.634546
2005-01-13 07:37:59 51°17.622 2°52.315 8.097386 3.545436 33.924866 0.870512
2005-01-13 07:38:04 51°17.637 2°52.311 8.09796 3.542275 33.890435 0.803093
2005-01-13 07:38:09 51°17.653 2°52.307 8.107392 3.547016 33.940871 0.836802
2005-01-13 07:38:14 51°17.671 2°52.304 8.090403 3.549756 33.970017 0.836802
2005-01-13 07:38:19 51°17.687 2°52.3 8.091393 3.54533 33.919707 0.803093
2005-01-13 07:38:23 51°17.701 2°52.297 8.091393 3.54533 33.919707 0.803093
2005-01-13 07:38:29 51°17.721 2°52.294 8.088005 3.542802 33.891197 0.870512
2005-01-13 07:38:33 51°17.735 2°52.289 8.089725 3.536375 33.818829 0.769383
2005-01-13 07:38:39 51°17.757 2°52.285 8.083053 3.545857 33.92208 0.668255
2005-01-13 07:38:43 51°17.77 2°52.284 8.090246 3.547859 33.945798 0.904221
2005-01-13 07:38:49 51°17.79 2°52.279 8.08665 3.545752 33.92742 0.600836
2005-01-13 07:38:53 51°17.803 2°52.276 8.08665 3.545752 33.92742 0.600836
2005-01-13 07:38:59 51°17.825 2°52.273 8.085451 3.550809 33.981228 0.93793
2005-01-13 07:39:04 51°17.842 2°52.268 8.0683 3.543645 33.907426 0.701965
2005-01-13 07:39:09 51°17.857 2°52.264 8.069812 3.524575 33.704646 0.769383
2005-01-13 07:39:14 51°17.876 2°52.262 8.059905 3.542275 33.89447 0.533418
2005-01-13 07:39:19 51°17.893 2°52.256 8.062408 3.541538 33.889852 0.836802
2005-01-13 07:39:24 51°17.91 2°52.253 8.062408 3.541538 33.889852 0.836802
2005-01-13 07:39:29 51°17.927 2°52.248 8.043582 3.542275 33.90335 0.93793
2005-01-13 07:39:34 51°17.945 2°52.244 8.039826 3.538588 33.868148 0.904221
2005-01-13 07:39:39 51°17.961 2°52.238 8.040244 3.527526 33.756096 0.735674
2005-01-13 07:39:45 51°17.984 2°52.235 8.02522 3.543645 33.931665 0.803093
2005-01-13 07:39:49 51°17.997 2°52.232 8.031115 3.540063 33.899187 0.803093
2005-01-13 07:39:54 51°18.015 2°52.23 8.031115 3.540063 33.899187 0.803093
2005-01-13 07:39:59 51°18.029 2°52.228 8.022663 3.509405 33.580223 0.567127
2005-01-13 07:40:05 51°18.049 2°52.228 8.018855 3.538904 33.900585 0.668255
2005-01-13 07:40:09 51°18.062 2°52.226 8.012332 3.523417 33.742139 0.701965
2005-01-13 07:40:13 51°18.075 2°52.222 8.006957 3.536903 33.888155 0.465999
2005-01-13 07:40:19 51°18.095 2°52.219 8.007531 3.541012 33.932736 0.634546
2005-01-13 07:40:24 51°18.113 2°52.215 8.007531 3.541012 33.932736 0.634546
2005-01-13 07:40:29 51°18.128 2°52.21 7.993074 3.53153 33.837385 0.870512
2005-01-13 07:40:34 51°18.147 2°52.209 7.992552 3.530476 33.834234 0.904221
2005-01-13 07:40:39 51°18.162 2°52.204 7.991769 3.52858 33.82291 0.39858
2005-01-13 07:40:43 51°18.175 2°52.202 7.99036 3.521205 33.744342 0.836802
2005-01-13 07:40:49 51°18.196 2°52.2 7.992135 3.535112 33.898995 0.634546
2005-01-13 07:40:54 51°18.211 2°52.2 7.992135 3.535112 33.898995 0.634546
2005-01-13 07:40:58 51°18.224 2°52.203 7.988689 3.512145 33.657492 0.870512
2005-01-13 07:41:03 51°18.241 2°52.205 7.984513 3.505402 33.588899 0.432289
2005-01-13 07:41:09 51°18.261 2°52.207 7.996571 3.532794 33.881567 0.465999
2005-01-13 07:41:13 51°18.274 2°52.21 7.986079 3.52858 33.838256 0.600836
2005-01-13 07:41:17 51°18.288 2°52.213 7.990464 3.527105 33.821725 0.735674
2005-01-13 07:41:25 51°18.316 2°52.219 7.990464 3.527105 33.821725 0.735674
2005-01-13 07:41:29 51°18.33 2°52.224 7.983521 3.529528 33.848364 0.668255
2005-01-13 07:41:34 51°18.348 2°52.232 7.990986 3.536692 33.925562 0.668255
2005-01-13 07:41:39 51°18.366 2°52.238 7.990047 3.528475 33.838749 0.533418
2005-01-13 07:41:43 51°18.379 2°52.246 7.985244 3.535533 33.915633 0.735674
2005-01-13 07:41:49 51°18.4 2°52.255 7.987228 3.52858 33.842297 0.769383
2005-01-13 07:41:53 51°18.413 2°52.259 7.987228 3.52858 33.842297 0.769383
2005-01-13 07:41:59 51°18.431 2°52.271 7.983313 3.52995 33.858517 0.735674
2005-01-13 07:42:05 51°18.452 2°52.281 7.989472 3.532583 33.884175 0.769383
2005-01-13 07:42:09 51°18.465 2°52.284 8.010193 3.529844 33.854159 0.735674
2005-01-13 07:42:14 51°18.481 2°52.293 8.011236 3.528896 33.845667 0.803093
2005-01-13 07:42:19 51°18.499 2°52.299 8.004452 3.527 33.826257 0.769383
2005-01-13 07:42:23 51°18.512 2°52.304 8.004452 3.527 33.826257 0.769383
2005-01-13 07:42:29 51°18.533 2°52.313 7.998085 3.532057 33.877749 0.803093
2005-01-13 07:42:33 51°18.547 2°52.32 7.991926 3.528475 33.834709 0.701965
2005-01-13 07:42:38 51°18.564 2°52.326 7.993492 3.530266 33.848952 0.567127
2005-01-13 07:42:43 51°18.581 2°52.335 7.991769 3.531319 33.861798 0.97164
2005-01-13 07:42:49 51°18.6 2°52.345 7.992865 3.5211 33.754499 0.668255
2005-01-13 07:42:53 51°18.615 2°52.35 7.992865 3.5211 33.754499 0.668255
2005-01-13 07:42:59 51°18.636 2°52.359 7.995736 3.511302 33.652533 1.005349
2005-01-13 07:43:03 51°18.65 2°52.365 7.997824 3.512461 33.665681 0.735674
2005-01-13 07:43:09 51°18.669 2°52.374 7.996102 3.510248 33.642918 0.870512
2005-01-13 07:43:13 51°18.683 2°52.381 7.996363 3.519625 33.745229 0.904221
2005-01-13 07:43:19 51°18.702 2°52.391 8.002417 3.503506 33.572715 0.567127
2005-01-13 07:43:22 51°18.713 2°52.396 8.002417 3.503506 33.572715 0.567127
2005-01-13 07:43:29 51°18.737 2°52.408 7.998763 3.533953 33.893114 0.836802
2005-01-13 07:43:33 51°18.75 2°52.416 7.995058 3.535007 33.905157 0.634546
2005-01-13 07:43:39 51°18.771 2°52.426 7.990464 3.529001 33.838708 0.668255
2005-01-13 07:43:45 51°18.791 2°52.436 7.996571 3.536692 33.920701 0.904221
2005-01-13 07:43:49 51°18.803 2°52.446 7.997511 3.529844 33.847692 0.803093
2005-01-13 07:43:54 51°18.821 2°52.454 7.997511 3.529844 33.847692 0.803093
2005-01-13 07:43:59 51°18.836 2°52.465 8.000956 3.522259 33.767654 0.701965
2005-01-13 07:44:04 51°18.853 2°52.475 8.000016 3.533953 33.893923 0.668255
2005-01-13 07:44:09 51°18.869 2°52.485 7.99464 3.520573 33.752915 0.701965
2005-01-13 07:44:13 51°18.881 2°52.495 7.996519 3.530687 33.859911 0.93793
2005-01-13 07:44:19 51°18.901 2°52.506 7.992187 3.536271 33.917018 0.836802
2005-01-13 07:44:23 51°18.913 2°52.518 7.992187 3.536271 33.917018 0.836802
2005-01-13 07:44:29 51°18.933 2°52.53 7.995893 3.524366 33.789302 0.634546
2005-01-13 07:44:33 51°18.946 2°52.541 8.004661 3.533637 33.889744 0.634546
2005-01-13 07:44:39 51°18.965 2°52.55 7.989316 3.528264 33.833271 0.634546
2005-01-13 07:44:43 51°18.978 2°52.563 7.990673 3.506245 33.598676 0.634546
2005-01-13 07:44:49 51°18.998 2°52.572 7.987959 3.512145 33.66151 0.904221
2005-01-13 07:44:53 51°19.011 2°52.584 7.987959 3.512145 33.66151 0.904221
2005-01-13 07:44:58 51°19.027 2°52.592 8.011028 3.512671 33.667121 0.567127
2005-01-13 07:45:04 51°19.046 2°52.605 8.003983 3.535849 33.915764 0.870512
2005-01-13 07:45:09 51°19.06 2°52.62 7.988846 3.535533 33.912393 0.904221
2005-01-13 07:45:13 51°19.074 2°52.627 7.98514 3.522364 33.772002 0.904221
2005-01-13 07:45:18 51°19.09 2°52.64 7.985871 3.512145 33.659903 0.769383
2005-01-13 07:45:23 51°19.106 2°52.647 7.985871 3.512145 33.659903 0.769383
2005-01-13 07:45:29 51°19.126 2°52.66 7.98373 3.530476 33.855239 0.803093
2005-01-13 07:45:33 51°19.138 2°52.671 7.979867 3.499292 33.526244 0.870512
2005-01-13 07:45:39 51°19.158 2°52.685 7.977622 3.53016 33.85672 0.769383
2005-01-13 07:45:43 51°19.17 2°52.69 7.977257 3.524998 33.802495 0.668255
2005-01-13 07:45:49 51°19.19 2°52.704 7.974907 3.530687 33.866381 0.735674
2005-01-13 07:45:53 51°19.203 2°52.71 7.974907 3.530687 33.866381 0.735674
2005-01-13 07:45:59 51°19.223 2°52.723 7.976056 3.526684 33.828543 0.803093
2005-01-13 07:46:02 51°19.232 2°52.733 7.971148 3.528159 33.848313 0.769383
2005-01-13 07:46:09 51°19.256 2°52.746 7.971879 3.504876 33.600137 0.735674
2005-01-13 07:46:14 51°19.271 2°52.759 7.971983 3.529212 33.861977 0.870512
2005-01-13 07:46:19 51°19.287 2°52.769 7.97214 3.521205 33.775783 0.701965
2005-01-13 07:46:24 51°19.305 2°52.779 7.97214 3.521205 33.775783 0.701965
2005-01-13 07:46:29 51°19.32 2°52.791 7.969372 3.529844 33.868719 0.836802
2005-01-13 07:46:33 51°19.332 2°52.802 7.969425 3.529634 33.868899 0.668255
2005-01-13 07:46:39 51°19.352 2°52.812 7.968746 3.522996 33.799725 0.701965
2005-01-13 07:46:44 51°19.369 2°52.827 7.965665 3.505718 33.615541 0.769383
2005-01-13 07:46:49 51°19.386 2°52.833 7.962009 3.524787 33.819634 0.769383
2005-01-13 07:46:54 51°19.401 2°52.847 7.962009 3.524787 33.819634 0.769383
2005-01-13 07:46:59 51°19.418 2°52.854 7.970834 3.531846 33.89574 0.668255
2005-01-13 07:47:05 51°19.437 2°52.87 7.967127 3.515622 33.724315 0.836802
2005-01-13 07:47:09 51°19.451 2°52.875 7.958719 3.501188 33.571284 0.600836
2005-01-13 07:47:13 51°19.463 2°52.884 7.974176 3.50161 33.575774 0.836802
2005-01-13 07:47:19 51°19.482 2°52.9 7.96791 3.531425 33.893674 0.701965
2005-01-13 07:47:23 51°19.496 2°52.905 7.96791 3.531425 33.893674 0.701965
2005-01-13 07:47:29 51°19.514 2°52.919 7.964882 3.5211 33.782731 0.735674
2005-01-13 07:47:34 51°19.53 2°52.93 7.964151 3.509827 33.666567 0.634546
2005-01-13 07:47:39 51°19.548 2°52.939 7.955847 3.504981 33.613305 0.600836
2005-01-13 07:47:44 51°19.565 2°52.949 7.957675 3.529423 33.874746 0.634546
2005-01-13 07:47:49 51°19.58 2°52.961 7.957779 3.528475 33.867058 0.668255
2005-01-13 07:47:54 51°19.597 2°52.971 7.957779 3.528475 33.867058 0.668255
2005-01-13 07:47:59 51°19.612 2°52.982 7.957779 3.52247 33.802185 0.668255
2005-01-13 07:48:04 51°19.629 2°52.99 7.961592 3.528791 33.873669 0.533418
2005-01-13 07:48:09 51°19.645 2°53.003 7.969686 3.524366 33.827265 0.668255
2005-01-13 07:48:14 51°19.661 2°53.013 7.959555 3.515411 33.731742 0.668255
2005-01-13 07:48:19 51°19.677 2°53.026 7.953392 3.526263 33.849117 0.600836
2005-01-13 07:48:24 51°19.693 2°53.034 7.953392 3.526263 33.849117 0.600836
2005-01-13 07:48:29 51°19.709 2°53.043 7.953653 3.510038 33.675252 0.769383
2005-01-13 07:48:33 51°19.723 2°53.049 7.961278 3.518782 33.765277 0.567127
2005-01-13 07:48:39 51°19.743 2°53.061 7.956474 3.527527 33.859369 0.634546
2005-01-13 07:48:43 51°19.756 2°53.068 7.955273 3.5211 33.794038 0.701965
2005-01-13 07:48:49 51°19.776 2°53.08 7.956265 3.525314 33.841427 0.701965
2005-01-13 07:48:53 51°19.79 2°53.085 7.956265 3.525314 33.841427 0.701965
2005-01-13 07:48:59 51°19.81 2°53.096 7.958928 3.502663 33.599044 0.769383
2005-01-13 07:49:04 51°19.825 2°53.103 7.961174 3.502137 33.591823 0.465999
2005-01-13 07:49:09 51°19.842 2°53.112 7.962009 3.510459 33.681356 0.668255
2005-01-13 07:49:14 51°19.858 2°53.123 7.956422 3.514147 33.719066 0.634546
2005-01-13 07:49:19 51°19.876 2°53.129 7.958354 3.520152 33.783116 0.567127
2005-01-13 07:49:25 51°19.897 2°53.139 7.958354 3.520152 33.783116 0.567127
2005-01-13 07:49:29 51°19.91 2°53.146 7.958615 3.530477 33.893278 0.668255
2005-01-13 07:49:33 51°19.923 2°53.152 7.968902 3.526368 33.848623 0.499708
2005-01-13 07:49:38 51°19.94 2°53.16 7.959189 3.529107 33.877042 0.769383
2005-01-13 07:49:43 51°19.956 2°53.168 7.958145 3.524366 33.828882 0.634546
2005-01-13 07:49:49 51°19.977 2°53.177 7.961383 3.522154 33.805278 0.465999
2005-01-13 07:49:53 51°19.99 2°53.185 7.961383 3.522154 33.805278 0.465999
2005-01-13 07:49:59 51°20.01 2°53.194 7.961017 3.523734 33.819712 0.533418
2005-01-13 07:50:04 51°20.027 2°53.206 7.957362 3.526157 33.844756 0.769383
2005-01-13 07:50:09 51°20.045 2°53.21 7.961017 3.523945 33.823577 0.600836
2005-01-13 07:50:14 51°20.06 2°53.22 7.970364 3.517939 33.757902 0.803093
2005-01-13 07:50:19 51°20.078 2°53.228 7.963889 3.51952 33.775565 0.567127
2005-01-13 07:50:25 51°20.097 2°53.24 7.963889 3.51952 33.775565 0.567127
2005-01-13 07:50:29 51°20.111 2°53.247 7.961487 3.529107 33.877852 0.600836
2005-01-13 07:50:34 51°20.128 2°53.255 7.975481 3.524261 33.82695 0.769383
2005-01-13 07:50:39 51°20.144 2°53.262 7.970051 3.527527 33.856941 0.668255
2005-01-13 07:50:44 51°20.162 2°53.272 7.967023 3.523839 33.815986 0.634546
2005-01-13 07:50:49 51°20.178 2°53.281 7.968694 3.527316 33.853075 0.701965
2005-01-13 07:50:54 51°20.195 2°53.288 7.968694 3.527316 33.853075 0.701965
2005-01-13 07:50:59 51°20.212 2°53.296 7.967127 3.531003 33.889988 0.701965
2005-01-13 07:51:04 51°20.229 2°53.304 7.971565 3.528264 33.862382 0.634546
2005-01-13 07:51:09 51°20.245 2°53.311 7.964882 3.521627 33.791579 0.668255
2005-01-13 07:51:14 51°20.263 2°53.319 7.966187 3.5152 33.723852 0.533418
2005-01-13 07:51:19 51°20.279 2°53.328 7.970834 3.529739 33.878118 0.533418
2005-01-13 07:51:24 51°20.296 2°53.335 7.970834 3.529739 33.878118 0.533418
2005-01-13 07:51:29 51°20.312 2°53.345 7.966239 3.526157 33.839902 0.567127
2005-01-13 07:51:34 51°20.33 2°53.352 7.965874 3.52837 33.862696 0.668255
2005-01-13 07:51:39 51°20.346 2°53.363 7.970626 3.526157 33.839094 0.668255
2005-01-13 07:51:45 51°20.366 2°53.37 7.971513 3.526895 33.846961 0.533418
2005-01-13 07:51:49 51°20.38 2°53.378 7.97167 3.527527 33.852895 0.567127
2005-01-13 07:51:54 51°20.396 2°53.389 7.97167 3.527527 33.852895 0.567127
2005-01-13 07:51:57 51°20.406 2°53.391 7.968276 3.5211 33.785154 0.701965
2005-01-13 07:52:03 51°20.426 2°53.401 7.973445 3.527105 33.849209 0.600836
2005-01-13 07:52:09 51°20.445 2°53.411 7.973393 3.49866 33.544345 0.634546
2005-01-13 07:52:13 51°20.46 2°53.417 7.968119 3.527 33.844849 0.600836
2005-01-13 07:52:18 51°20.476 2°53.427 7.967858 3.519625 33.767002 0.701965
2005-01-13 07:52:23 51°20.493 2°53.433 7.967858 3.519625 33.767002 0.701965
2005-01-13 07:52:29 51°20.513 2°53.444 7.966762 3.523945 33.813877 0.769383
2005-01-13 07:52:33 51°20.525 2°53.454 7.967388 3.510459 33.670087 0.600836
2005-01-13 07:52:39 51°20.546 2°53.464 7.978196 3.522996 33.80134 0.600836
2005-01-13 07:52:44 51°20.563 2°53.469 7.972088 3.517097 33.739235 0.432289
2005-01-13 07:52:49 51°20.578 2°53.481 7.976056 3.526157 33.836667 0.735674
2005-01-13 07:52:54 51°20.593 2°53.485 7.976056 3.526157 33.836667 0.735674
2005-01-13 07:52:59 51°20.606 2°53.492 7.984148 3.533111 33.91004 0.634546
2005-01-13 07:53:05 51°20.621 2°53.496 7.972349 3.511724 33.680344 0.634546
2005-01-13 07:53:09 51°20.63 2°53.497 7.972453 3.523945 33.809029 0.735674
2005-01-13 07:53:14 51°20.64 2°53.497 7.976265 3.529107 33.860853 0.634546
2005-01-13 07:53:19 51°20.649 2°53.495 7.973288 3.530055 33.870157 0.600836
2005-01-13 07:53:24 51°20.657 2°53.494 7.973288 3.530055 33.870157 0.600836
2005-01-13 07:53:29 51°20.664 2°53.492 7.974176 3.521416 33.778837 0.701965
2005-01-13 07:53:34 51°20.671 2°53.491 7.976526 3.528896 33.861842 0.567127
2005-01-13 07:53:39 51°20.678 2°53.489 7.978405 3.535007 33.928653 0.668255
2005-01-13 07:53:44 51°20.684 2°53.487 7.977465 3.529212 33.866022 0.701965
2005-01-13 07:53:49 51°20.688 2°53.485 7.978979 3.531003 33.885129 0.499708
2005-01-13 07:53:54 51°20.692 2°53.486 7.978979 3.531003 33.885129 0.499708
2005-01-13 07:53:59 51°20.697 2°53.485 7.987541 3.526789 33.840175 0.499708
2005-01-13 07:54:04 51°20.7 2°53.485 7.987959 3.526157 33.832625 0.567127
2005-01-13 07:54:09 51°20.703 2°53.482 7.991038 3.529002 33.861347 0.533418
2005-01-13 07:54:14 51°20.705 2°53.48 7.987019 3.530687 33.8769 0.701965
2005-01-13 07:54:19 51°20.706 2°53.48 7.981799 3.523207 33.795511 0.701965
2005-01-13 07:54:24 51°20.708 2°53.478 7.981799 3.523207 33.795511 0.701965
2005-01-13 07:54:29 51°20.709 2°53.475 7.981433 3.534901 33.916992 0.668255
2005-01-13 07:54:34 51°20.71 2°53.475 7.983313 3.524682 33.80397 0.701965
2005-01-13 07:54:39 51°20.71 2°53.475 7.979136 3.523839 33.795792 0.769383
2005-01-13 07:54:44 51°20.712 2°53.473 7.981329 3.53016 33.863999 0.600836
2005-01-13 07:54:49 51°20.713 2°53.472 7.986079 3.531109 33.876538 0.769383
2005-01-13 07:54:54 51°20.714 2°53.472 7.986079 3.531109 33.876538 0.769383
2005-01-13 07:54:59 51°20.714 2°53.471 7.978405 3.533426 33.89964 0.769383
2005-01-13 07:55:04 51°20.714 2°53.469 7.978196 3.529844 33.863055 0.735674
2005-01-13 07:55:09 51°20.714 2°53.468 7.978196 3.528053 33.845573 0.735674
2005-01-13 07:55:14 51°20.714 2°53.468 7.978927 3.520257 33.760834 0.769383
2005-01-13 07:55:19 51°20.714 2°53.468 7.976473 3.526157 33.82535 0.735674
2005-01-13 07:55:23 51°20.714 2°53.467 7.976473 3.526157 33.82535 0.735674
2005-01-13 07:55:29 51°20.715 2°53.466 7.982947 3.532162 33.890204 0.600836
2005-01-13 07:55:33 51°20.714 2°53.466 7.98065 3.532373 33.893261 0.701965
2005-01-13 07:55:37 51°20.714 2°53.466 7.985035 3.524577 33.810115 0.668255
2005-01-13 07:55:43 51°20.714 2°53.466 7.987593 3.530477 33.873033 0.634546
2005-01-13 07:55:49 51°20.713 2°53.465 7.987437 3.530371 33.8711 0.567127
2005-01-13 07:55:54 51°20.712 2°53.465 7.987437 3.530371 33.8711 0.567127
2005-01-13 07:55:58 51°20.712 2°53.465 7.992761 3.529001 33.854876 0.634546
2005-01-13 07:56:02 51°20.712 2°53.465 7.994797 3.52995 33.864179 0.634546
2005-01-13 07:56:09 51°20.712 2°53.465 7.990203 3.530687 33.871235 0.634546
2005-01-13 07:56:13 51°20.711 2°53.465 8.00106 3.53448 33.910067 0.668255
2005-01-13 07:56:19 51°20.71 2°53.465 7.99156 3.530898 33.869436 0.600836
2005-01-13 07:56:25 51°20.709 2°53.466 7.99156 3.530898 33.869436 0.600836
2005-01-13 07:56:29 51°20.708 2°53.465 7.987123 3.53585 33.918194 0.701965
2005-01-13 07:56:34 51°20.708 2°53.465 7.992396 3.533426 33.891544 0.735674
2005-01-13 07:56:38 51°20.707 2°53.467 7.985088 3.533005 33.885431 0.701965
2005-01-13 07:56:43 51°20.706 2°53.466 7.98942 3.534585 33.903902 0.567127
2005-01-13 07:56:49 51°20.706 2°53.466 7.984043 3.531846 33.873884 0.600836
2005-01-13 07:56:53 51°20.705 2°53.467 7.984043 3.531846 33.873884 0.600836
2005-01-13 07:56:59 51°20.704 2°53.467 7.985088 3.534269 33.900531 0.634546
2005-01-13 07:57:04 51°20.703 2°53.469 7.98373 3.535217 33.913072 0.567127
2005-01-13 07:57:09 51°20.702 2°53.468 7.983208 3.53448 33.906017 0.567127
2005-01-13 07:57:14 51°20.703 2°53.467 7.985818 3.536482 33.929797 0.668255
2005-01-13 07:57:19 51°20.703 2°53.468 7.98206 3.534164 33.905076 0.567127
2005-01-13 07:57:24 51°20.705 2°53.47 7.98206 3.534164 33.905076 0.567127
2005-01-13 07:57:29 51°20.708 2°53.472 7.986079 3.537114 33.938972 0.567127
2005-01-13 07:57:34 51°20.712 2°53.474 7.989107 3.531003 33.874605 0.668255
2005-01-13 07:57:39 51°20.718 2°53.478 7.987698 3.537009 33.938659 0.634546
2005-01-13 07:57:44 51°20.724 2°53.48 7.989316 3.515095 33.706616 0.701965
2005-01-13 07:57:49 51°20.733 2°53.48 7.980128 3.525314 33.814747 0.634546
2005-01-13 07:57:54 51°20.741 2°53.481 7.980128 3.525314 33.814747 0.634546
2005-01-13 07:57:59 51°20.751 2°53.481 7.9842 3.532162 33.887775 0.634546
2005-01-13 07:58:05 51°20.764 2°53.477 7.984931 3.529528 33.858067 0.600836
2005-01-13 07:58:09 51°20.774 2°53.474 7.986079 3.532373 33.887593 0.499708
2005-01-13 07:58:13 51°20.784 2°53.469 7.982791 3.528475 33.850875 0.499708
2005-01-13 07:58:19 51°20.801 2°53.462 7.984931 3.528369 33.849752 0.668255
2005-01-13 07:58:24 51°20.815 2°53.458 7.984931 3.528369 33.849752 0.668255
2005-01-13 07:58:29 51°20.831 2°53.456 7.987123 3.531846 33.885213 0.600836
2005-01-13 07:58:33 51°20.843 2°53.453 7.986027 3.515516 33.713524 0.769383
2005-01-13 07:58:38 51°20.859 2°53.45 7.994066 3.533532 33.899144 0.533418
2005-01-13 07:58:45 51°20.88 2°53.443 7.993492 3.503611 33.585065 0.769383
2005-01-13 07:58:49 51°20.893 2°53.442 7.993544 3.517623 33.73276 0.600836
2005-01-13 07:58:53 51°20.906 2°53.438 7.993544 3.517623 33.73276 0.600836
2005-01-13 07:58:57 51°20.919 2°53.436 7.990777 3.52268 33.783438 0.600836
2005-01-13 07:59:04 51°20.942 2°53.433 7.99772 3.534691 33.910694 0.567127
2005-01-13 07:59:09 51°20.959 2°53.431 7.99344 3.526894 33.825133 0.668255
2005-01-13 07:59:14 51°20.976 2°53.432 7.994014 3.531319 33.871503 0.769383
2005-01-13 07:59:19 51°20.992 2°53.432 7.999599 3.531741 33.874379 0.432289
2005-01-13 07:59:25 51°21.014 2°53.434 7.999599 3.531741 33.874379 0.432289
2005-01-13 07:59:29 51°21.028 2°53.435 8.006853 3.536482 33.924125 0.668255
2005-01-13 07:59:33 51°21.042 2°53.435 8.008001 3.525419 33.80618 0.600836
2005-01-13 07:59:39 51°21.061 2°53.436 8.007218 3.531003 33.865706 0.701965
2005-01-13 07:59:44 51°21.079 2°53.441 8.006227 3.528791 33.839694 0.701965
2005-01-13 07:59:49 51°21.096 2°53.441 8.006174 3.530371 33.854116 0.735674
2005-01-13 07:59:54 51°21.113 2°53.444 8.006174 3.530371 33.854116 0.735674
2005-01-13 07:59:59 51°21.131 2°53.445 8.0056 3.536482 33.916025 0.600836
2005-01-13 08:00:03 51°21.145 2°53.448 8.010193 3.539853 33.951163 0.567127
2005-01-13 08:00:09 51°21.166 2°53.449 8.011184 3.536271 33.912969 0.634546
2005-01-13 08:00:13 51°21.179 2°53.451 8.008262 3.539115 33.941678 0.803093
2005-01-13 08:00:19 51°21.2 2°53.453 8.008732 3.52131 33.751909 0.634546
2005-01-13 08:00:22 51°21.21 2°53.454 8.008732 3.52131 33.751909 0.634546
2005-01-13 08:00:29 51°21.234 2°53.456 8.008575 3.539326 33.942304 0.701965
2005-01-13 08:00:34 51°21.253 2°53.461 8.010454 3.524787 33.788145 0.803093
2005-01-13 08:00:39 51°21.269 2°53.462 8.013219 3.525314 33.793758 0.668255
2005-01-13 08:00:43 51°21.283 2°53.464 8.016454 3.53901 33.938934 0.499708
2005-01-13 08:00:49 51°21.304 2°53.466 8.012541 3.532583 33.868806 0.600836
2005-01-13 08:00:53 51°21.318 2°53.468 8.012541 3.532583 33.868806 0.600836
2005-01-13 08:00:59 51°21.339 2°53.47 8.01635 3.538905 33.934571 0.769383
2005-01-13 08:01:02 51°21.35 2°53.473 8.016768 3.532794 33.865393 0.701965
2005-01-13 08:01:09 51°21.374 2°53.474 8.02115 3.537746 33.918168 0.701965
2005-01-13 08:01:14 51°21.391 2°53.478 8.014993 3.540064 33.942875 0.735674
2005-01-13 08:01:19 51°21.409 2°53.48 8.019324 3.539115 33.933577 0.836802
2005-01-13 08:01:24 51°21.425 2°53.483 8.019324 3.539115 33.933577 0.836802
2005-01-13 08:01:29 51°21.442 2°53.485 8.023968 3.537219 33.911743 0.465999
2005-01-13 08:01:34 51°21.459 2°53.488 8.025742 3.539221 33.929841 0.870512
2005-01-13 08:01:39 51°21.477 2°53.492 8.020263 3.542276 33.963219 0.870512
2005-01-13 08:01:44 51°21.494 2°53.495 8.021203 3.534901 33.884614 0.870512
2005-01-13 08:01:49 51°21.512 2°53.498 8.022924 3.534901 33.882997 0.836802
2005-01-13 08:01:54 51°21.529 2°53.5 8.022924 3.534901 33.882997 0.836802
2005-01-13 08:01:59 51°21.546 2°53.501 8.023498 3.520678 33.729876 0.836802
2005-01-13 08:02:05 51°21.567 2°53.506 8.029028 3.540169 33.936708 0.836802
2005-01-13 08:02:09 51°21.58 2°53.51 8.029394 3.524998 33.775877 1.039059
2005-01-13 08:02:14 51°21.598 2°53.51 8.025116 3.531951 33.850756 0.769383
2005-01-13 08:02:19 51°21.615 2°53.517 8.03461 3.542065 33.957731 0.904221
2005-01-13 08:02:24 51°21.632 2°53.521 8.03461 3.542065 33.957731 0.904221
2005-01-13 08:02:29 51°21.65 2°53.526 8.038888 3.528264 33.807439 1.241315
2005-01-13 08:02:33 51°21.663 2°53.529 8.034245 3.53448 33.87204 0.870512
2005-01-13 08:02:39 51°21.683 2°53.536 8.042487 3.533742 33.864991 0.904221
2005-01-13 08:02:43 51°21.697 2°53.535 8.030489 3.526894 33.78882 1.005349
2005-01-13 08:02:49 51°21.716 2°53.538 8.031845 3.506666 33.570302 0.904221
2005-01-13 08:02:54 51°21.733 2°53.543 8.031845 3.506666 33.570302 0.904221
2005-01-13 08:02:59 51°21.751 2°53.549 8.03581 3.536481 33.889325 0.803093
2005-01-13 08:03:04 51°21.768 2°53.549 8.033515 3.542276 33.946207 0.97164
2005-01-13 08:03:09 51°21.784 2°53.555 8.038314 3.535533 33.875991 1.173896
2005-01-13 08:03:14 51°21.801 2°53.559 8.029863 3.542276 33.947826 1.072768
2005-01-13 08:03:19 51°21.819 2°53.564 8.035445 3.533004 33.850673 1.039059
2005-01-13 08:03:25 51°21.84 2°53.568 8.035445 3.533004 33.850673 1.039059
2005-01-13 08:03:29 51°21.854 2°53.568 8.036749 3.532794 33.847621 1.173896
2005-01-13 08:03:33 51°21.867 2°53.573 8.030437 3.532056 33.841381 0.97164
2005-01-13 08:03:39 51°21.888 2°53.579 8.027463 3.532267 33.844433 0.93793
2005-01-13 08:03:44 51°21.905 2°53.582 8.029237 3.527737 33.795377 0.97164
2005-01-13 08:03:49 51°21.923 2°53.586 8.028872 3.542065 33.94801 0.97164
2005-01-13 08:03:54 51°21.939 2°53.591 8.028872 3.542065 33.94801 0.97164
2005-01-13 08:03:57 51°21.95 2°53.592 8.025533 3.542697 33.955556 0.93793
2005-01-13 08:04:02 51°21.967 2°53.596 8.028141 3.540906 33.93728 1.039059
2005-01-13 08:04:09 51°21.991 2°53.601 8.027202 3.532056 33.842188 1.140187
2005-01-13 08:04:14 51°22.008 2°53.603 8.026942 3.542592 33.958484 1.005349
2005-01-13 08:04:19 51°22.024 2°53.609 8.029967 3.536692 33.895612 0.735674
2005-01-13 08:04:21 51°22.032 2°53.61 8.029967 3.536692 33.895612 0.735674
2005-01-13 08:04:29 51°22.059 2°53.617 8.033671 3.54038 33.935715 1.173896
2005-01-13 08:04:34 51°22.076 2°53.621 8.027463 3.533321 33.859693 0.97164
2005-01-13 08:04:39 51°22.095 2°53.626 8.023029 3.54059 33.936341 0.769383
2005-01-13 08:04:44 51°22.111 2°53.627 8.025689 3.526262 33.7837 0.836802
2005-01-13 08:04:49 51°22.128 2°53.629 8.023655 3.539221 33.919318 0.97164
2005-01-13 08:04:53 51°22.143 2°53.631 8.023655 3.539221 33.919318 0.97164
2005-01-13 08:04:57 51°22.156 2°53.634 8.026368 3.529633 33.817186 0.904221
2005-01-13 08:05:05 51°22.184 2°53.64 8.02355 3.538167 33.91052 0.904221
2005-01-13 08:05:09 51°22.197 2°53.643 8.020263 3.535533 33.882456 0.836802
2005-01-13 08:05:14 51°22.215 2°53.648 8.018907 3.531424 33.839491 0.803093
2005-01-13 08:05:19 51°22.232 2°53.651 8.018437 3.536587 33.89449 0.735674
2005-01-13 08:05:24 51°22.249 2°53.655 8.018437 3.536587 33.89449 0.735674
2005-01-13 08:05:29 51°22.266 2°53.66 8.01588 3.536376 33.891436 0.870512
2005-01-13 08:05:33 51°22.28 2°53.663 8.017394 3.539115 33.923051 1.005349
2005-01-13 08:05:39 51°22.301 2°53.668 8.017707 3.533321 33.862925 0.904221
2005-01-13 08:05:45 51°22.321 2°53.672 8.016454 3.515094 33.670424 1.072768
2005-01-13 08:05:49 51°22.335 2°53.675 8.010923 3.537324 33.909629 0.93793
2005-01-13 08:05:54 51°22.352 2°53.678 8.010923 3.537324 33.909629 0.93793
2005-01-13 08:05:59 51°22.37 2°53.682 8.017863 3.535006 33.885737 0.836802
2005-01-13 08:06:03 51°22.384 2°53.685 8.007009 3.53311 33.867145 0.93793
2005-01-13 08:06:09 51°22.404 2°53.692 8.011445 3.519203 33.718192 1.106477
2005-01-13 08:06:13 51°22.417 2°53.694 8.010297 3.531635 33.852236 0.634546
2005-01-13 08:06:17 51°22.431 2°53.697 8.011132 3.531003 33.846308 1.106477
2005-01-13 08:06:23 51°22.452 2°53.702 8.011132 3.531003 33.846308 1.106477
2005-01-13 08:06:29 51°22.472 2°53.705 8.016663 3.533953 33.879361 0.769383
2005-01-13 08:06:33 51°22.486 2°53.712 8.009045 3.539537 33.93969 0.97164
2005-01-13 08:06:39 51°22.506 2°53.718 8.011393 3.532373 33.864135 0.93793
2005-01-13 08:06:44 51°22.523 2°53.723 8.003774 3.516043 33.690969 0.668255
2005-01-13 08:06:49 51°22.54 2°53.731 8.006279 3.522364 33.758298 1.005349
2005-01-13 08:06:54 51°22.558 2°53.732 8.006279 3.522364 33.758298 1.005349
2005-01-13 08:06:59 51°22.574 2°53.744 8.0056 3.506455 33.58889 0.97164
2005-01-13 08:07:04 51°22.59 2°53.747 8.032367 3.529739 33.836066 1.039059
2005-01-13 08:07:09 51°22.606 2°53.757 8.008679 3.52563 33.793899 0.93793
2005-01-13 08:07:13 51°22.62 2°53.763 8.017498 3.538062 33.926395 0.97164
2005-01-13 08:07:19 51°22.641 2°53.773 8.007323 3.525841 33.794531 1.005349
2005-01-13 08:07:23 51°22.653 2°53.784 8.007323 3.525841 33.794531 1.005349
2005-01-13 08:07:29 51°22.673 2°53.792 8.010662 3.512777 33.648961 0.93793
2005-01-13 08:07:34 51°22.688 2°53.806 8.017081 3.537956 33.915557 0.97164
2005-01-13 08:07:39 51°22.704 2°53.814 8.019481 3.516569 33.692558 0.93793
2005-01-13 08:07:44 51°22.72 2°53.825 8.00774 3.540801 33.953978 0.870512
2005-01-13 08:07:49 51°22.736 2°53.839 8.01061 3.533215 33.874735 0.836802
2005-01-13 08:07:54 51°22.753 2°53.844 8.01061 3.533215 33.874735 0.836802
2005-01-13 08:07:59 51°22.767 2°53.861 8.00487 3.531951 33.858836 0.904221
2005-01-13 08:08:05 51°22.786 2°53.871 8.022455 3.52858 33.820488 0.870512
2005-01-13 08:08:09 51°22.798 2°53.883 8.013324 3.533005 33.869255 0.836802
2005-01-13 08:08:14 51°22.815 2°53.891 8.006696 3.532056 33.860767 0.870512
2005-01-13 08:08:19 51°22.83 2°53.907 8.004661 3.537114 33.916287 0.904221
2005-01-13 08:08:24 51°22.845 2°53.917 8.004661 3.537114 33.916287 0.904221
2005-01-13 08:08:29 51°22.861 2°53.93 8.0044 3.536376 33.905188 0.836802
2005-01-13 08:08:33 51°22.874 2°53.937 8.003565 3.535217 33.893644 0.870512
2005-01-13 08:08:39 51°22.893 2°53.952 8.006227 3.531003 33.849539 0.803093
2005-01-13 08:08:45 51°22.911 2°53.964 8.004191 3.534901 33.892703 0.803093
2005-01-13 08:08:49 51°22.923 2°53.973 8.001321 3.53764 33.921903 0.769383
2005-01-13 08:08:54 51°22.938 2°53.99 8.001321 3.53764 33.921903 0.769383
2005-01-13 08:08:59 51°22.955 2°53.999 8.010349 3.532057 33.868043 0.735674
2005-01-13 08:09:03 51°22.966 2°54.011 8.007062 3.532689 33.876399 0.769383
2005-01-13 08:09:09 51°22.984 2°54.026 8.027776 3.536798 33.918585 0.735674
2005-01-13 08:09:13 51°22.996 2°54.037 8.005078 3.534585 33.895807 0.668255
2005-01-13 08:09:19 51°23.015 2°54.051 8.006174 3.51678 33.704454 0.668255
2005-01-13 08:09:23 51°23.027 2°54.064 8.006174 3.51678 33.704454 0.668255
2005-01-13 08:09:29 51°23.045 2°54.075 8.008105 3.534058 33.886145 0.668255
2005-01-13 08:09:33 51°23.056 2°54.089 8.019585 3.528474 33.820173 0.735674
2005-01-13 08:09:39 51°23.075 2°54.103 8.006435 3.535428 33.893463 0.668255
2005-01-13 08:09:45 51°23.093 2°54.12 8.004296 3.539431 33.939377 0.735674
2005-01-13 08:09:49 51°23.104 2°54.134 8.007897 3.530476 33.843925 0.701965
2005-01-13 08:09:54 51°23.12 2°54.144 8.007897 3.530476 33.843925 0.701965
2005-01-13 08:09:57 51°23.128 2°54.154 8.003774 3.522258 33.755564 0.735674
2005-01-13 08:10:02 51°23.144 2°54.165 8.004713 3.53311 33.871995 0.735674
2005-01-13 08:10:09 51°23.164 2°54.183 8.006748 3.529528 33.836244 0.735674
2005-01-13 08:10:14 51°23.18 2°54.196 8.005757 3.53311 33.874421 0.735674
2005-01-13 08:10:19 51°23.195 2°54.209 8.009358 3.536798 33.913727 0.735674
2005-01-13 08:10:25 51°23.213 2°54.225 8.009358 3.536798 33.913727 0.735674
2005-01-13 08:10:29 51°23.225 2°54.235 8.009723 3.531951 33.862877 0.735674
2005-01-13 08:10:34 51°23.241 2°54.249 8.008575 3.526367 33.802564 0.769383
2005-01-13 08:10:39 51°23.255 2°54.261 8.013532 3.523733 33.775307 0.803093
2005-01-13 08:10:44 51°23.27 2°54.277 8.008575 3.53606 33.905865 0.769383
2005-01-13 08:10:49 51°23.286 2°54.288 8.007009 3.536165 33.90537 0.803093
2005-01-13 08:10:53 51°23.297 2°54.302 8.007009 3.536165 33.90537 0.803093
2005-01-13 08:10:57 51°23.31 2°54.31 8.008471 3.531424 33.854838 0.735674
2005-01-13 08:11:04 51°23.331 2°54.327 8.009462 3.534058 33.882101 0.735674
2005-01-13 08:11:09 51°23.347 2°54.34 8.004139 3.534796 33.890771 0.769383
2005-01-13 08:11:14 51°23.361 2°54.356 8.006227 3.531846 33.861754 0.735674
2005-01-13 08:11:19 51°23.376 2°54.367 8.007062 3.536903 33.91647 0.803093
2005-01-13 08:11:24 51°23.392 2°54.38 8.007062 3.536903 33.91647 0.803093
2005-01-13 08:11:29 51°23.407 2°54.393 8.001269 3.533742 33.881967 0.769383
2005-01-13 08:11:33 51°23.419 2°54.404 8.00153 3.532373 33.868986 0.769383
2005-01-13 08:11:39 51°23.437 2°54.42 7.996363 3.52721 33.813966 0.701965
2005-01-13 08:11:43 51°23.449 2°54.43 7.998763 3.539432 33.943428 0.836802
2005-01-13 08:11:49 51°23.467 2°54.447 7.997354 3.541328 33.963648 0.769383
2005-01-13 08:11:53 51°23.48 2°54.455 7.997354 3.541328 33.963648 0.769383
2005-01-13 08:11:59 51°23.499 2°54.471 7.99845 3.526683 33.812389 0.769383
2005-01-13 08:12:02 51°23.507 2°54.48 7.99678 3.532689 33.880443 0.769383
2005-01-13 08:12:09 51°23.528 2°54.498 7.998033 3.530582 33.857979 0.803093
2005-01-13 08:12:14 51°23.543 2°54.511 7.994797 3.527948 33.829094 0.769383
2005-01-13 08:12:19 51°23.558 2°54.525 8.00226 3.534796 33.901291 0.735674
2005-01-13 08:12:22 51°23.567 2°54.535 8.00226 3.534796 33.901291 0.735674
2005-01-13 08:12:29 51°23.586 2°54.558 8.011497 3.542382 33.982185 0.735674
2005-01-13 08:12:33 51°23.599 2°54.568 7.997876 3.519625 33.739589 0.769383
2005-01-13 08:12:39 51°23.616 2°54.586 7.998398 3.529633 33.846254 0.769383
2005-01-13 08:12:44 51°23.631 2°54.6 8.002469 3.533321 33.884756 0.735674
2005-01-13 08:12:49 51°23.644 2°54.617 7.99772 3.537957 33.932562 0.735674
2005-01-13 08:12:54 51°23.659 2°54.631 7.99772 3.537957 33.932562 0.735674
2005-01-13 08:12:59 51°23.673 2°54.649 8.015046 3.536692 33.919082 0.668255
2005-01-13 08:13:04 51°23.688 2°54.663 8.005339 3.531214 33.862292 0.701965
2005-01-13 08:13:09 51°23.702 2°54.681 7.993387 3.531424 33.864538 0.735674
2005-01-13 08:13:14 51°23.718 2°54.694 7.999912 3.518255 33.727412 0.735674
2005-01-13 08:13:19 51°23.731 2°54.71 7.997667 3.539432 33.94748 0.735674
2005-01-13 08:13:24 51°23.746 2°54.725 7.997667 3.539432 33.94748 0.735674
2005-01-13 08:13:29 51°23.759 2°54.742 8.001321 3.539326 33.943115 0.735674
2005-01-13 08:13:33 51°23.771 2°54.753 7.998555 3.540064 33.955842 0.701965
2005-01-13 08:13:39 51°23.788 2°54.773 7.996102 3.542592 33.984432 0.803093
2005-01-13 08:13:44 51°23.802 2°54.788 7.995005 3.541328 33.969325 0.769383
2005-01-13 08:13:49 51°23.815 2°54.808 7.990934 3.533848 33.891181 0.769383
2005-01-13 08:13:53 51°23.828 2°54.815 7.990934 3.533848 33.891181 0.769383
2005-01-13 08:13:59 51°23.844 2°54.837 7.9925 3.516253 33.70367 0.701965
2005-01-13 08:14:04 51°23.859 2°54.85 8.005809 3.528053 33.83264 0.735674
2005-01-13 08:14:09 51°23.874 2°54.866 7.991978 3.541539 33.977252 0.701965
2005-01-13 08:14:14 51°23.889 2°54.878 7.991769 3.537746 33.938419 0.701965
2005-01-13 08:14:19 51°23.901 2°54.897 7.991404 3.508879 33.63074 0.769383
2005-01-13 08:14:23 51°23.914 2°54.904 7.991404 3.508879 33.63074 0.769383
2005-01-13 08:14:29 51°23.93 2°54.926 7.995736 3.543751 33.997605 0.803093
2005-01-13 08:14:33 51°23.943 2°54.936 8.013167 3.523734 33.784178 0.701965
2005-01-13 08:14:39 51°23.958 2°54.956 8.000016 3.538905 33.949969 0.701965
2005-01-13 08:14:44 51°23.971 2°54.972 8.000173 3.536692 33.927182 0.769383
2005-01-13 08:14:49 51°23.987 2°54.986 8.001321 3.532583 33.882556 0.668255
2005-01-13 08:14:54 51°24 2°55.001 8.001321 3.532583 33.882556 0.668255
2005-01-13 08:14:59 51°24.013 2°55.018 7.992396 3.544489 34.003848 0.701965
2005-01-13 08:15:05 51°24.031 2°55.036 7.992813 3.534691 33.899358 0.735674
2005-01-13 08:15:09 51°24.042 2°55.048 7.993231 3.536271 33.914588 0.735674
2005-01-13 08:15:14 51°24.056 2°55.063 7.993283 3.539748 33.954093 0.668255
2005-01-13 08:15:19 51°24.07 2°55.08 7.995632 3.544383 34.005972 0.701965
2005-01-13 08:15:24 51°24.086 2°55.093 7.995632 3.544383 34.005972 0.701965
2005-01-13 08:15:29 51°24.1 2°55.11 7.992082 3.526894 33.82271 0.735674
2005-01-13 08:15:33 51°24.112 2°55.117 7.998972 3.542382 33.988678 0.735674
2005-01-13 08:15:39 51°24.129 2°55.139 8.006488 3.542698 33.991238 0.701965
2005-01-13 08:15:44 51°24.142 2°55.153 8.007479 3.524576 33.797196 0.735674
2005-01-13 08:15:49 51°24.158 2°55.167 7.998607 3.532583 33.882556 0.668255
2005-01-13 08:15:54 51°24.171 2°55.186 7.998607 3.532583 33.882556 0.668255
2005-01-13 08:15:59 51°24.186 2°55.199 8.00106 3.544489 34.006284 0.735674
2005-01-13 08:16:05 51°24.203 2°55.213 7.996102 3.541749 33.973009 0.735674
2005-01-13 08:16:09 51°24.213 2°55.231 7.997615 3.523734 33.779339 0.701965
2005-01-13 08:16:14 51°24.228 2°55.243 8.002208 3.535533 33.907535 0.769383
2005-01-13 08:16:19 51°24.242 2°55.259 8.003043 3.529317 33.841269 0.735674
2005-01-13 08:16:24 51°24.256 2°55.274 8.003043 3.529317 33.841269 0.735674
2005-01-13 08:16:29 51°24.27 2°55.289 8.015724 3.545016 34.010279 0.803093
2005-01-13 08:16:33 51°24.281 2°55.302 7.999181 3.544067 34.000977 0.735674
2005-01-13 08:16:39 51°24.299 2°55.319 7.99678 3.540169 33.957777 0.769383
2005-01-13 08:16:43 51°24.309 2°55.332 7.998763 3.54038 33.957591 0.769383
2005-01-13 08:16:49 51°24.326 2°55.352 8.00059 3.536482 33.912786 0.803093
2005-01-13 08:16:53 51°24.338 2°55.362 8.00059 3.536482 33.912786 0.803093
2005-01-13 08:16:59 51°24.354 2°55.382 8.00106 3.545332 34.010402 0.803093
2005-01-13 08:17:03 51°24.365 2°55.396 8.003252 3.540274 33.959711 0.836802
2005-01-13 08:17:09 51°24.382 2°55.416 8.001164 3.540274 33.960522 0.769383
2005-01-13 08:17:13 51°24.392 2°55.431 8.007427 3.542171 33.978314 0.803093
2005-01-13 08:17:19 51°24.408 2°55.451 8.001686 3.540801 33.963707 0.769383
2005-01-13 08:17:25 51°24.424 2°55.472 8.001686 3.540801 33.963707 0.769383
2005-01-13 08:17:29 51°24.435 2°55.487 8.005861 3.526262 33.805476 0.870512
2005-01-13 08:17:33 51°24.446 2°55.5 8.006383 3.545542 34.011838 0.803093
2005-01-13 08:17:39 51°24.46 2°55.525 8.00607 3.53606 33.909913 0.803093
2005-01-13 08:17:43 51°24.473 2°55.535 8.014159 3.517202 33.708943 0.803093
2005-01-13 08:17:49 51°24.487 2°55.559 8.021724 3.545226 34.007655 0.769383
2005-01-13 08:17:53 51°24.498 2°55.572 8.021724 3.545226 34.007655 0.769383
2005-01-13 08:17:59 51°24.513 2°55.594 8.014472 3.539642 33.948106 0.769383
2005-01-13 08:18:03 51°24.524 2°55.608 8.013689 3.543751 33.9903 0.769383
2005-01-13 08:18:09 51°24.541 2°55.626 8.01635 3.538378 33.928145 0.769383
2005-01-13 08:18:13 51°24.55 2°55.643 8.005496 3.538905 33.928901 0.803093
2005-01-13 08:18:19 51°24.566 2°55.661 8.009723 3.534901 33.88704 0.836802
2005-01-13 08:18:22 51°24.574 2°55.673 8.009723 3.534901 33.88704 0.836802
2005-01-13 08:18:29 51°24.591 2°55.697 8.009723 3.539747 33.940316 0.836802
2005-01-13 08:18:33 51°24.6 2°55.714 8.01802 3.516148 33.689678 0.803093
2005-01-13 08:18:39 51°24.618 2°55.731 8.007479 3.539853 33.94549 0.870512
2005-01-13 08:18:43 51°24.627 2°55.747 8.029707 3.536376 33.907616 0.769383
2005-01-13 08:18:49 51°24.644 2°55.766 8.011915 3.535639 33.900564 0.803093
2005-01-13 08:18:53 51°24.654 2°55.78 8.011915 3.535639 33.900564 0.803093
2005-01-13 08:18:58 51°24.668 2°55.795 8.014837 3.54491 33.99779 0.803093
2005-01-13 08:19:03 51°24.681 2°55.814 8.018072 3.545331 34.003095 0.836802
2005-01-13 08:19:09 51°24.695 2°55.835 8.012645 3.529001 33.824978 0.803093
2005-01-13 08:19:13 51°24.707 2°55.847 8.011184 3.535639 33.8949 0.803093
2005-01-13 08:19:17 51°24.718 2°55.861 8.013063 3.538905 33.930521 0.803093
2005-01-13 08:19:23 51°24.732 2°55.884 8.013063 3.538905 33.930521 0.803093
2005-01-13 08:19:29 51°24.75 2°55.901 8.009671 3.534901 33.886231 0.803093
2005-01-13 08:19:34 51°24.763 2°55.917 8.015463 3.534164 33.879989 0.870512
2005-01-13 08:19:39 51°24.776 2°55.934 8.01395 3.534374 33.884661 0.870512
2005-01-13 08:19:43 51°24.786 2°55.95 8.018124 3.541012 33.952173 0.836802
2005-01-13 08:19:49 51°24.802 2°55.969 8.015515 3.536271 33.902446 0.836802
2005-01-13 08:19:53 51°24.812 2°55.983 8.015515 3.536271 33.902446 0.836802
2005-01-13 08:19:57 51°24.823 2°55.997 8.015828 3.511618 33.642244 0.769383
2005-01-13 08:20:03 51°24.84 2°56.017 8.010088 3.537324 33.917723 0.870512
2005-01-13 08:20:09 51°24.856 2°56.04 8.01562 3.545964 34.009025 0.803093
2005-01-13 08:20:13 51°24.868 2°56.051 8.009306 3.537746 33.918168 0.803093
2005-01-13 08:20:19 51°24.883 2°56.072 8.021568 3.537219 33.912553 0.803093
2005-01-13 08:20:23 51°24.894 2°56.087 8.021568 3.537219 33.912553 0.803093
2005-01-13 08:20:29 51°24.91 2°56.109 8.026785 3.531003 33.847115 0.836802
2005-01-13 08:20:34 51°24.922 2°56.128 8.019376 3.543751 33.982998 0.836802
2005-01-13 08:20:39 51°24.938 2°56.14 8.01275 3.534269 33.884347 0.769383
2005-01-13 08:20:44 51°24.95 2°56.16 8.011132 3.529739 33.834451 0.803093
2005-01-13 08:20:49 51°24.965 2°56.175 8.018698 3.538483 33.9236 0.803093
2005-01-13 08:20:54 51°24.978 2°56.195 8.018698 3.538483 33.9236 0.803093
2005-01-13 08:20:59 51°24.993 2°56.209 8.02282 3.535428 33.890228 0.769383
2005-01-13 08:21:03 51°25.003 2°56.224 8.021046 3.544805 33.993421 0.803093
2005-01-13 08:21:09 51°25.019 2°56.245 8.013324 3.538062 33.922346 0.836802
2005-01-13 08:21:13 51°25.031 2°56.255 8.011393 3.523417 33.766298 0.769383
2005-01-13 08:21:19 51°25.046 2°56.276 8.015985 3.539537 33.935639 0.803093
2005-01-13 08:21:22 51°25.054 2°56.286 8.015985 3.539537 33.935639 0.803093
2005-01-13 08:21:29 51°25.073 2°56.309 8.014002 3.537535 33.914303 0.803093
2005-01-13 08:21:34 51°25.085 2°56.326 8.016246 3.537851 33.9201 0.836802
2005-01-13 08:21:39 51°25.099 2°56.343 8.018385 3.539115 33.936007 0.769383
2005-01-13 08:21:43 51°25.109 2°56.358 8.013115 3.528896 33.824663 0.735674
2005-01-13 08:21:49 51°25.124 2°56.376 8.016089 3.534901 33.888658 0.836802
2005-01-13 08:21:53 51°25.134 2°56.393 8.016089 3.534901 33.888658 0.836802
2005-01-13 08:21:59 51°25.151 2°56.413 8.01922 3.546174 34.008836 0.735674
2005-01-13 08:22:02 51°25.156 2°56.428 8.017707 3.515726 33.684387 0.769383
2005-01-13 08:22:09 51°25.175 2°56.447 8.022663 3.515516 33.681339 0.870512
2005-01-13 08:22:13 51°25.185 2°56.462 8.053022 3.539853 33.939819 0.769383
2005-01-13 08:22:19 51°25.203 2°56.478 8.017394 3.522048 33.748487 0.803093
2005-01-13 08:22:22 51°25.211 2°56.489 8.017394 3.522048 33.748487 0.803093
2005-01-13 08:22:29 51°25.229 2°56.513 8.026889 3.545964 34.00172 0.769383
2005-01-13 08:22:33 51°25.239 2°56.527 8.025742 3.527315 33.802178 0.803093
2005-01-13 08:22:39 51°25.255 2°56.549 8.017498 3.547965 34.016569 0.803093
2005-01-13 08:22:44 51°25.27 2°56.563 8.016663 3.54038 33.935715 0.803093
2005-01-13 08:22:49 51°25.282 2°56.581 8.021516 3.543435 33.972331 0.769383
2005-01-13 08:22:54 51°25.296 2°56.598 8.021516 3.543435 33.972331 0.769383
2005-01-13 08:22:59 51°25.309 2°56.616 8.017655 3.54354 33.973454 0.836802
2005-01-13 08:23:05 51°25.326 2°56.637 8.013898 3.539221 33.929841 0.735674
2005-01-13 08:23:09 51°25.336 2°56.649 8.017811 3.534164 33.879181 0.769383
2005-01-13 08:23:14 51°25.35 2°56.666 8.01515 3.544172 33.984247 0.735674
2005-01-13 08:23:19 51°25.364 2°56.683 8.024594 3.537008 33.908688 0.735674
2005-01-13 08:23:23 51°25.375 2°56.694 8.024594 3.537008 33.908688 0.735674
2005-01-13 08:23:29 51°25.39 2°56.717 8.015985 3.546596 34.010895 0.803093
2005-01-13 08:23:33 51°25.403 2°56.726 8.018855 3.537746 33.916549 0.701965
2005-01-13 08:23:39 51°25.419 2°56.747 8.015933 3.542697 33.966901 0.769383
2005-01-13 08:23:41 51°25.424 2°56.753 8.022663 3.538799 33.926969 0.769383
2005-01-13 08:23:49 51°25.449 2°56.777 8.01061 3.547439 34.01907 0.735674
2005-01-13 08:23:54 51°25.463 2°56.791 8.01061 3.547439 34.01907 0.735674
2005-01-13 08:23:59 51°25.476 2°56.808 8.006383 3.546806 34.013142 0.701965
2005-01-13 08:24:04 51°25.491 2°56.82 8.006801 3.542171 33.964528 0.735674
2005-01-13 08:24:09 51°25.505 2°56.837 8.012958 3.541539 33.957789 0.735674
2005-01-13 08:24:14 51°25.519 2°56.851 8.008575 3.547333 34.021195 0.668255
2005-01-13 08:24:17 51°25.526 2°56.86 8.009671 3.537851 33.92172 0.701965
2005-01-13 08:24:22 51°25.54 2°56.874 8.009671 3.537851 33.92172 0.701965
2005-01-13 08:24:29 51°25.56 2°56.898 8.006801 3.520994 33.743708 0.701965
2005-01-13 08:24:33 51°25.571 2°56.91 8.009045 3.541223 33.960093 0.701965
2005-01-13 08:24:39 51°25.588 2°56.928 8.01181 3.537324 33.919343 0.668255
2005-01-13 08:24:44 51°25.601 2°56.944 8.00941 3.537851 33.925769 0.701965
2005-01-13 08:24:49 51°25.616 2°56.958 8.009514 3.546807 34.02045 0.701965
2005-01-13 08:24:54 51°25.631 2°56.973 8.009514 3.546807 34.02045 0.701965
2005-01-13 08:24:59 51°25.645 2°56.987 8.012958 3.545437 34.005842 0.668255
2005-01-13 08:25:04 51°25.658 2°57.004 8.00941 3.547017 34.022697 0.668255
2005-01-13 08:25:09 51°25.673 2°57.018 8.026942 3.547649 34.029439 0.634546
2005-01-13 08:25:14 51°25.687 2°57.034 8.024437 3.551969 34.075515 0.668255
2005-01-13 08:25:19 51°25.703 2°57.046 8.011028 3.546385 34.015143 0.735674
2005-01-13 08:25:24 51°25.715 2°57.063 8.011028 3.546385 34.015143 0.735674
2005-01-13 08:25:29 51°25.73 2°57.075 8.016298 3.555341 34.107412 0.668255
2005-01-13 08:25:33 51°25.741 2°57.09 8.01682 3.555024 34.100785 0.701965
2005-01-13 08:25:39 51°25.759 2°57.107 8.010767 3.548492 34.027056 0.668255
2005-01-13 08:25:44 51°25.771 2°57.124 8.015307 3.549124 34.034609 0.701965
2005-01-13 08:25:49 51°25.786 2°57.137 8.010975 3.554603 34.093848 0.769383
2005-01-13 08:25:54 51°25.799 2°57.155 8.010975 3.554603 34.093848 0.769383
2005-01-13 08:25:59 51°25.813 2°57.169 8.014159 3.544383 33.987305 0.735674
2005-01-13 08:26:02 51°25.82 2°57.179 8.00988 3.547965 34.027124 0.701965
2005-01-13 08:26:09 51°25.841 2°57.2 8.010245 3.54628 34.00996 0.769383
2005-01-13 08:26:14 51°25.854 2°57.216 8.016507 3.543014 33.975946 0.735674
2005-01-13 08:26:19 51°25.868 2°57.23 8.017446 3.53311 33.871187 0.803093
2005-01-13 08:26:22 51°25.877 2°57.24 8.017446 3.53311 33.871187 0.803093
2005-01-13 08:26:29 51°25.897 2°57.258 8.011184 3.548282 34.033744 0.701965
2005-01-13 08:26:33 51°25.907 2°57.274 8.008575 3.554182 34.096677 0.769383
2005-01-13 08:26:39 51°25.925 2°57.29 8.011549 3.542065 33.967458 0.735674
2005-01-13 08:26:44 51°25.939 2°57.305 8.011393 3.554182 34.092608 0.735674
2005-01-13 08:26:49 51°25.953 2°57.321 8.012697 3.546596 34.01333 0.836802
2005-01-13 08:26:54 51°25.967 2°57.335 8.012697 3.546596 34.01333 0.836802
2005-01-13 08:26:59 51°25.983 2°57.348 8.01181 3.545858 34.007901 0.769383
2005-01-13 08:27:05 51°26 2°57.365 8.015463 3.53016 33.838942 0.769383
2005-01-13 08:27:09 51°26.011 2°57.377 8.011915 3.550178 34.052345 0.735674
2005-01-13 08:27:14 51°26.025 2°57.394 8.024229 3.55376 34.090554 0.769383
2005-01-13 08:27:19 51°26.04 2°57.408 8.015985 3.553866 34.092491 0.735674
2005-01-13 08:27:24 51°26.053 2°57.425 8.015985 3.553866 34.092491 0.735674
2005-01-13 08:27:29 51°26.066 2°57.439 8.014159 3.540064 33.942065 0.769383
2005-01-13 08:27:33 51°26.078 2°57.452 8.014524 3.552074 34.068506 0.803093
2005-01-13 08:27:39 51°26.094 2°57.47 8.012906 3.550494 34.050026 0.769383
2005-01-13 08:27:44 51°26.108 2°57.484 8.011967 3.532583 33.859915 0.769383
2005-01-13 08:27:49 51°26.122 2°57.5 8.010088 3.545964 34.005778 0.803093
2005-01-13 08:27:53 51°26.132 2°57.513 8.010088 3.545964 34.005778 0.803093
2005-01-13 08:27:59 51°26.149 2°57.532 8.006018 3.554498 34.096793 0.769383
2005-01-13 08:28:04 51°26.164 2°57.546 8.006435 3.552074 34.070946 0.836802
2005-01-13 08:28:09 51°26.177 2°57.56 8.011184 3.54196 33.963902 0.769383
2005-01-13 08:28:14 51°26.191 2°57.578 8.013219 3.547649 34.027814 0.803093
2005-01-13 08:28:19 51°26.206 2°57.592 8.009097 3.544699 33.997978 0.803093
2005-01-13 08:28:25 51°26.222 2°57.609 8.009097 3.544699 33.997978 0.803093
2005-01-13 08:28:29 51°26.233 2°57.622 8.004557 3.549019 34.04486 0.803093
2005-01-13 08:28:34 51°26.247 2°57.639 8.008523 3.547649 34.030251 0.803093
2005-01-13 08:28:39 51°26.262 2°57.653 8.00393 3.547965 34.031998 0.803093
2005-01-13 08:28:45 51°26.279 2°57.673 8.011758 3.554498 34.100863 0.836802
2005-01-13 08:28:49 51°26.29 2°57.684 7.995162 3.534796 33.893198 0.803093
2005-01-13 08:28:53 51°26.301 2°57.696 7.995162 3.534796 33.893198 0.803093
2005-01-13 08:28:57 51°26.312 2°57.709 7.998659 3.551864 34.076832 0.836802
2005-01-13 08:29:04 51°26.332 2°57.732 7.999338 3.543751 33.991112 0.836802
2005-01-13 08:29:09 51°26.347 2°57.743 8.014837 3.546596 34.021451 0.836802
2005-01-13 08:29:14 51°26.36 2°57.761 7.996937 3.550916 34.070783 0.870512
2005-01-13 08:29:19 51°26.375 2°57.775 7.997145 3.548071 34.043687 0.870512
2005-01-13 08:29:24 51°26.388 2°57.791 7.997145 3.548071 34.043687 0.870512
2005-01-13 08:29:29 51°26.403 2°57.806 7.991978 3.542276 33.981872 0.836802
2005-01-13 08:29:33 51°26.414 2°57.819 7.993283 3.544489 34.001412 0.803093
2005-01-13 08:29:39 51°26.43 2°57.841 7.992918 3.553866 34.101446 0.769383
2005-01-13 08:29:44 51°26.446 2°57.85 8.001895 3.52995 33.848815 0.803093
2005-01-13 08:29:49 51°26.458 2°57.869 7.997511 3.519414 33.737344 0.836802
2005-01-13 08:29:54 51°26.472 2°57.88 7.997511 3.519414 33.737344 0.836802
2005-01-13 08:29:59 51°26.487 2°57.896 8.010767 3.550284 34.070547 0.836802
2005-01-13 08:30:02 51°26.495 2°57.904 7.995214 3.537324 33.932303 0.870512
2005-01-13 08:30:09 51°26.515 2°57.925 7.993283 3.553128 34.100905 0.803093
2005-01-13 08:30:14 51°26.528 2°57.94 7.986601 3.551126 34.076286 0.836802
2005-01-13 08:30:19 51°26.541 2°57.959 7.992552 3.543857 33.997105 0.836802
2005-01-13 08:30:22 51°26.549 2°57.969 7.992552 3.543857 33.997105 0.836802
2005-01-13 08:30:29 51°26.569 2°57.99 7.990777 3.517202 33.712967 0.836802
2005-01-13 08:30:33 51°26.58 2°57.998 8.004035 3.554076 34.109396 0.836802
2005-01-13 08:30:39 51°26.597 2°58.02 7.995371 3.54196 33.98337 0.836802
2005-01-13 08:30:44 51°26.611 2°58.032 7.987123 3.544173 34.008598 0.870512
2005-01-13 08:30:49 51°26.624 2°58.051 7.992396 3.552285 34.093538 0.870512
2005-01-13 08:30:54 51°26.639 2°58.065 7.992396 3.552285 34.093538 0.870512
2005-01-13 08:30:59 51°26.652 2°58.08 7.984774 3.534796 33.906148 0.836802
2005-01-13 08:31:05 51°26.67 2°58.098 7.984722 3.550494 34.071169 0.803093
2005-01-13 08:31:09 51°26.681 2°58.112 7.98681 3.537535 33.938603 0.836802
2005-01-13 08:31:14 51°26.695 2°58.125 7.978927 3.547966 34.049881 0.904221
2005-01-13 08:31:19 51°26.709 2°58.142 7.984722 3.546385 34.037895 0.836802
2005-01-13 08:31:23 51°26.72 2°58.153 7.984722 3.546385 34.037895 0.836802
2005-01-13 08:31:29 51°26.738 2°58.171 7.979293 3.545332 34.025839 0.870512
2005-01-13 08:31:33 51°26.749 2°58.185 7.978979 3.5388 33.955333 0.870512
2005-01-13 08:31:39 51°26.766 2°58.202 7.993857 3.548809 34.066199 0.836802
2005-01-13 08:31:41 51°26.771 2°58.208 7.974594 3.541012 33.983807 0.870512
2005-01-13 08:31:49 51°26.793 2°58.233 7.975795 3.548809 34.067827 0.870512
2005-01-13 08:31:54 51°26.808 2°58.246 7.975795 3.548809 34.067827 0.870512
2005-01-13 08:31:59 51°26.821 2°58.264 7.984357 3.543014 34.006793 0.836802
2005-01-13 08:32:04 51°26.833 2°58.283 7.983574 3.548914 34.066509 0.870512